<?xml version="1.0" encoding="UTF-8" standalone="no" ?>
<gpx xmlns="http://www.topografix.com/GPX/1/1" xmlns:xsi="http://www.w3.org/2001/XMLSchema-instance" xsi:schemaLocation="http://www.topografix.com/GPX/1/1 http://www.topografix.com/GPX/1/1/gpx.xsd" version="1.1" creator="VisuGPX - https://www.visugpx.com">
  <metadata>
    <name>RSPFY-bois de Rochefort</name>
    <desc><![CDATA[marche nordique dans le bois de Rochefort en partant du carrefour de Luynes en passant par le carrefour Fanny, le Fonds de Bullion, le carrefour des Jumelles et le point de vue sur la vallée (161m).]]></desc>
  </metadata>
  <trk>
    <name><![CDATA[2023-10-26 08:58]]></name>
    <desc><![CDATA[<p>Heure de départ: 08:58 26 oct. 2023<br/>Heure d'arrivée: 11:41 26 oct. 2023<br/>Distance: 12,2 km (02:42)<br/>Temps déplacement: 02:20<br/>Vitesse moyenne: 4,49 km/h<br/>Vitesse moyenne mouv.: 5,19 km/h<br/>Vitesse Max.: 9,75 km/h<br/>Altitude minimale: 101 m<br/>Altitude maximale: 166 m<br/>Vitesse de montée: 214,1 m/h<br/>Vitesse de descente: -283,4 m/h<br/>Gain d'altitude: 320 m<br/>Perte d'altitude: -326 m<br/>Temps de montée: 01:29<br/>Temps de descente: 01:09<br/></p><hr align="center" width="480" style="height: 2px; width: 517px"/>]]></desc>
    <trkseg>
      <trkpt lat="48.59181" lon="1.96628">
        <ele>116.8</ele>
        <time>2023-10-26T06:58:46Z</time>
      </trkpt>
      <trkpt lat="48.59181" lon="1.96612">
        <ele>116.5</ele>
        <time>2023-10-26T06:58:50Z</time>
      </trkpt>
      <trkpt lat="48.59184" lon="1.96596">
        <ele>116.6</ele>
        <time>2023-10-26T06:59:06Z</time>
      </trkpt>
      <trkpt lat="48.59183" lon="1.96583">
        <ele>116.6</ele>
        <time>2023-10-26T06:59:11Z</time>
      </trkpt>
      <trkpt lat="48.59187" lon="1.9657">
        <ele>116.6</ele>
        <time>2023-10-26T06:59:23Z</time>
      </trkpt>
      <trkpt lat="48.59195" lon="1.96561">
        <ele>117</ele>
        <time>2023-10-26T06:59:29Z</time>
      </trkpt>
      <trkpt lat="48.59204" lon="1.96554">
        <ele>117.7</ele>
        <time>2023-10-26T06:59:37Z</time>
      </trkpt>
      <trkpt lat="48.59211" lon="1.96545">
        <ele>118.2</ele>
        <time>2023-10-26T06:59:44Z</time>
      </trkpt>
      <trkpt lat="48.59217" lon="1.96534">
        <ele>118.6</ele>
        <time>2023-10-26T06:59:52Z</time>
      </trkpt>
      <trkpt lat="48.59224" lon="1.96524">
        <ele>119.2</ele>
        <time>2023-10-26T07:00:00Z</time>
      </trkpt>
      <trkpt lat="48.59233" lon="1.96517">
        <ele>119.9</ele>
        <time>2023-10-26T07:00:09Z</time>
      </trkpt>
      <trkpt lat="48.59241" lon="1.96508">
        <ele>120.8</ele>
        <time>2023-10-26T07:00:17Z</time>
      </trkpt>
      <trkpt lat="48.59248" lon="1.96499">
        <ele>121.8</ele>
        <time>2023-10-26T07:00:24Z</time>
      </trkpt>
      <trkpt lat="48.59255" lon="1.96489">
        <ele>122.5</ele>
        <time>2023-10-26T07:00:32Z</time>
      </trkpt>
      <trkpt lat="48.59264" lon="1.96485">
        <ele>123.5</ele>
        <time>2023-10-26T07:00:39Z</time>
      </trkpt>
      <trkpt lat="48.59273" lon="1.96481">
        <ele>124.5</ele>
        <time>2023-10-26T07:00:48Z</time>
      </trkpt>
      <trkpt lat="48.59283" lon="1.96478">
        <ele>125.7</ele>
        <time>2023-10-26T07:00:56Z</time>
      </trkpt>
      <trkpt lat="48.59292" lon="1.96481">
        <ele>126.9</ele>
        <time>2023-10-26T07:01:03Z</time>
      </trkpt>
      <trkpt lat="48.59301" lon="1.96484">
        <ele>127.9</ele>
        <time>2023-10-26T07:01:10Z</time>
      </trkpt>
      <trkpt lat="48.59309" lon="1.96489">
        <ele>128.8</ele>
        <time>2023-10-26T07:01:17Z</time>
      </trkpt>
      <trkpt lat="48.59319" lon="1.96494">
        <ele>129.6</ele>
        <time>2023-10-26T07:01:24Z</time>
      </trkpt>
      <trkpt lat="48.59328" lon="1.96502">
        <ele>130.4</ele>
        <time>2023-10-26T07:01:31Z</time>
      </trkpt>
      <trkpt lat="48.59336" lon="1.9651">
        <ele>131.2</ele>
        <time>2023-10-26T07:01:38Z</time>
      </trkpt>
      <trkpt lat="48.59344" lon="1.96519">
        <ele>131.6</ele>
        <time>2023-10-26T07:01:45Z</time>
      </trkpt>
      <trkpt lat="48.59352" lon="1.96526">
        <ele>132.3</ele>
        <time>2023-10-26T07:01:52Z</time>
      </trkpt>
      <trkpt lat="48.59361" lon="1.96533">
        <ele>133</ele>
        <time>2023-10-26T07:01:59Z</time>
      </trkpt>
      <trkpt lat="48.59369" lon="1.96541">
        <ele>133.7</ele>
        <time>2023-10-26T07:02:06Z</time>
      </trkpt>
      <trkpt lat="48.59377" lon="1.96548">
        <ele>134.6</ele>
        <time>2023-10-26T07:02:13Z</time>
      </trkpt>
      <trkpt lat="48.59384" lon="1.96556">
        <ele>135.5</ele>
        <time>2023-10-26T07:02:20Z</time>
      </trkpt>
      <trkpt lat="48.59393" lon="1.96564">
        <ele>137</ele>
        <time>2023-10-26T07:02:27Z</time>
      </trkpt>
      <trkpt lat="48.59401" lon="1.96571">
        <ele>138.2</ele>
        <time>2023-10-26T07:02:35Z</time>
      </trkpt>
      <trkpt lat="48.59408" lon="1.96582">
        <ele>139.3</ele>
        <time>2023-10-26T07:02:44Z</time>
      </trkpt>
      <trkpt lat="48.59415" lon="1.96591">
        <ele>140.2</ele>
        <time>2023-10-26T07:02:52Z</time>
      </trkpt>
      <trkpt lat="48.59419" lon="1.96604">
        <ele>140.9</ele>
        <time>2023-10-26T07:03:00Z</time>
      </trkpt>
      <trkpt lat="48.59429" lon="1.96608">
        <ele>141.8</ele>
        <time>2023-10-26T07:03:07Z</time>
      </trkpt>
      <trkpt lat="48.59438" lon="1.96601">
        <ele>142.2</ele>
        <time>2023-10-26T07:03:15Z</time>
      </trkpt>
      <trkpt lat="48.59445" lon="1.9659">
        <ele>142.3</ele>
        <time>2023-10-26T07:03:23Z</time>
      </trkpt>
      <trkpt lat="48.5945" lon="1.96578">
        <ele>142.2</ele>
        <time>2023-10-26T07:03:30Z</time>
      </trkpt>
      <trkpt lat="48.59456" lon="1.96566">
        <ele>142.2</ele>
        <time>2023-10-26T07:03:37Z</time>
      </trkpt>
      <trkpt lat="48.59461" lon="1.96555">
        <ele>142.2</ele>
        <time>2023-10-26T07:03:44Z</time>
      </trkpt>
      <trkpt lat="48.59468" lon="1.96543">
        <ele>142.6</ele>
        <time>2023-10-26T07:03:52Z</time>
      </trkpt>
      <trkpt lat="48.59474" lon="1.96532">
        <ele>143.3</ele>
        <time>2023-10-26T07:04:00Z</time>
      </trkpt>
      <trkpt lat="48.59479" lon="1.9652">
        <ele>144.1</ele>
        <time>2023-10-26T07:04:08Z</time>
      </trkpt>
      <trkpt lat="48.59484" lon="1.96507">
        <ele>145.1</ele>
        <time>2023-10-26T07:04:16Z</time>
      </trkpt>
      <trkpt lat="48.59489" lon="1.96495">
        <ele>146</ele>
        <time>2023-10-26T07:04:24Z</time>
      </trkpt>
      <trkpt lat="48.59495" lon="1.96482">
        <ele>147</ele>
        <time>2023-10-26T07:04:32Z</time>
      </trkpt>
      <trkpt lat="48.59501" lon="1.9647">
        <ele>148.1</ele>
        <time>2023-10-26T07:04:40Z</time>
      </trkpt>
      <trkpt lat="48.59508" lon="1.9646">
        <ele>148.8</ele>
        <time>2023-10-26T07:04:49Z</time>
      </trkpt>
      <trkpt lat="48.59513" lon="1.96448">
        <ele>149.4</ele>
        <time>2023-10-26T07:04:58Z</time>
      </trkpt>
      <trkpt lat="48.59515" lon="1.96434">
        <ele>149.3</ele>
        <time>2023-10-26T07:05:05Z</time>
      </trkpt>
      <trkpt lat="48.59521" lon="1.96423">
        <ele>150</ele>
        <time>2023-10-26T07:05:14Z</time>
      </trkpt>
      <trkpt lat="48.59528" lon="1.96414">
        <ele>151</ele>
        <time>2023-10-26T07:05:21Z</time>
      </trkpt>
      <trkpt lat="48.59533" lon="1.96403">
        <ele>151.8</ele>
        <time>2023-10-26T07:05:28Z</time>
      </trkpt>
      <trkpt lat="48.5954" lon="1.96392">
        <ele>152.8</ele>
        <time>2023-10-26T07:05:36Z</time>
      </trkpt>
      <trkpt lat="48.59544" lon="1.9638">
        <ele>153.3</ele>
        <time>2023-10-26T07:05:44Z</time>
      </trkpt>
      <trkpt lat="48.5955" lon="1.96367">
        <ele>154.1</ele>
        <time>2023-10-26T07:05:52Z</time>
      </trkpt>
      <trkpt lat="48.59555" lon="1.96355">
        <ele>154.4</ele>
        <time>2023-10-26T07:06:00Z</time>
      </trkpt>
      <trkpt lat="48.59561" lon="1.96342">
        <ele>154.4</ele>
        <time>2023-10-26T07:06:08Z</time>
      </trkpt>
      <trkpt lat="48.59566" lon="1.96329">
        <ele>154.3</ele>
        <time>2023-10-26T07:06:15Z</time>
      </trkpt>
      <trkpt lat="48.5957" lon="1.96317">
        <ele>153.9</ele>
        <time>2023-10-26T07:06:22Z</time>
      </trkpt>
      <trkpt lat="48.59575" lon="1.96305">
        <ele>153.8</ele>
        <time>2023-10-26T07:06:30Z</time>
      </trkpt>
      <trkpt lat="48.59582" lon="1.96295">
        <ele>153.6</ele>
        <time>2023-10-26T07:06:38Z</time>
      </trkpt>
      <trkpt lat="48.59587" lon="1.96282">
        <ele>152.9</ele>
        <time>2023-10-26T07:06:47Z</time>
      </trkpt>
      <trkpt lat="48.59596" lon="1.96274">
        <ele>152.7</ele>
        <time>2023-10-26T07:06:55Z</time>
      </trkpt>
      <trkpt lat="48.59602" lon="1.96263">
        <ele>151.8</ele>
        <time>2023-10-26T07:07:02Z</time>
      </trkpt>
      <trkpt lat="48.59606" lon="1.96249">
        <ele>150.3</ele>
        <time>2023-10-26T07:07:09Z</time>
      </trkpt>
      <trkpt lat="48.59611" lon="1.96236">
        <ele>149</ele>
        <time>2023-10-26T07:07:17Z</time>
      </trkpt>
      <trkpt lat="48.59615" lon="1.96223">
        <ele>147.3</ele>
        <time>2023-10-26T07:07:26Z</time>
      </trkpt>
      <trkpt lat="48.59621" lon="1.96211">
        <ele>145.8</ele>
        <time>2023-10-26T07:07:35Z</time>
      </trkpt>
      <trkpt lat="48.59628" lon="1.96201">
        <ele>144.5</ele>
        <time>2023-10-26T07:07:44Z</time>
      </trkpt>
      <trkpt lat="48.59633" lon="1.96188">
        <ele>142.9</ele>
        <time>2023-10-26T07:07:53Z</time>
      </trkpt>
      <trkpt lat="48.59639" lon="1.96177">
        <ele>141.5</ele>
        <time>2023-10-26T07:08:01Z</time>
      </trkpt>
      <trkpt lat="48.59644" lon="1.96165">
        <ele>140</ele>
        <time>2023-10-26T07:08:10Z</time>
      </trkpt>
      <trkpt lat="48.59649" lon="1.96152">
        <ele>138.8</ele>
        <time>2023-10-26T07:08:19Z</time>
      </trkpt>
      <trkpt lat="48.59655" lon="1.96141">
        <ele>137.8</ele>
        <time>2023-10-26T07:08:27Z</time>
      </trkpt>
      <trkpt lat="48.59661" lon="1.9613">
        <ele>137.1</ele>
        <time>2023-10-26T07:08:34Z</time>
      </trkpt>
      <trkpt lat="48.59667" lon="1.96119">
        <ele>136.6</ele>
        <time>2023-10-26T07:08:41Z</time>
      </trkpt>
      <trkpt lat="48.59674" lon="1.96108">
        <ele>135.8</ele>
        <time>2023-10-26T07:08:48Z</time>
      </trkpt>
      <trkpt lat="48.5968" lon="1.96095">
        <ele>134.9</ele>
        <time>2023-10-26T07:08:56Z</time>
      </trkpt>
      <trkpt lat="48.59684" lon="1.96083">
        <ele>133.9</ele>
        <time>2023-10-26T07:09:03Z</time>
      </trkpt>
      <trkpt lat="48.59689" lon="1.9607">
        <ele>132.6</ele>
        <time>2023-10-26T07:09:11Z</time>
      </trkpt>
      <trkpt lat="48.59695" lon="1.96058">
        <ele>131.3</ele>
        <time>2023-10-26T07:09:19Z</time>
      </trkpt>
      <trkpt lat="48.59701" lon="1.96047">
        <ele>130.4</ele>
        <time>2023-10-26T07:09:26Z</time>
      </trkpt>
      <trkpt lat="48.59705" lon="1.96033">
        <ele>129.7</ele>
        <time>2023-10-26T07:09:34Z</time>
      </trkpt>
      <trkpt lat="48.5971" lon="1.96021">
        <ele>129.3</ele>
        <time>2023-10-26T07:09:41Z</time>
      </trkpt>
      <trkpt lat="48.59717" lon="1.96011">
        <ele>129.2</ele>
        <time>2023-10-26T07:09:49Z</time>
      </trkpt>
      <trkpt lat="48.59722" lon="1.95998">
        <ele>128.9</ele>
        <time>2023-10-26T07:09:57Z</time>
      </trkpt>
      <trkpt lat="48.59726" lon="1.95983">
        <ele>128.5</ele>
        <time>2023-10-26T07:10:03Z</time>
      </trkpt>
      <trkpt lat="48.5973" lon="1.9597">
        <ele>128.2</ele>
        <time>2023-10-26T07:10:10Z</time>
      </trkpt>
      <trkpt lat="48.59738" lon="1.95961">
        <ele>128.2</ele>
        <time>2023-10-26T07:10:19Z</time>
      </trkpt>
      <trkpt lat="48.59745" lon="1.95951">
        <ele>128</ele>
        <time>2023-10-26T07:10:29Z</time>
      </trkpt>
      <trkpt lat="48.59753" lon="1.95941">
        <ele>127.8</ele>
        <time>2023-10-26T07:10:36Z</time>
      </trkpt>
      <trkpt lat="48.59759" lon="1.95931">
        <ele>127.2</ele>
        <time>2023-10-26T07:10:45Z</time>
      </trkpt>
      <trkpt lat="48.59764" lon="1.95919">
        <ele>126.6</ele>
        <time>2023-10-26T07:10:52Z</time>
      </trkpt>
      <trkpt lat="48.5977" lon="1.95907">
        <ele>126.4</ele>
        <time>2023-10-26T07:11:01Z</time>
      </trkpt>
      <trkpt lat="48.59775" lon="1.95894">
        <ele>126.1</ele>
        <time>2023-10-26T07:11:08Z</time>
      </trkpt>
      <trkpt lat="48.59779" lon="1.95881">
        <ele>125.8</ele>
        <time>2023-10-26T07:11:15Z</time>
      </trkpt>
      <trkpt lat="48.59784" lon="1.95868">
        <ele>125.3</ele>
        <time>2023-10-26T07:11:22Z</time>
      </trkpt>
      <trkpt lat="48.59787" lon="1.95855">
        <ele>124.8</ele>
        <time>2023-10-26T07:11:28Z</time>
      </trkpt>
      <trkpt lat="48.59793" lon="1.95843">
        <ele>124.3</ele>
        <time>2023-10-26T07:11:35Z</time>
      </trkpt>
      <trkpt lat="48.59798" lon="1.95831">
        <ele>123.9</ele>
        <time>2023-10-26T07:11:42Z</time>
      </trkpt>
      <trkpt lat="48.59802" lon="1.95818">
        <ele>123.4</ele>
        <time>2023-10-26T07:11:49Z</time>
      </trkpt>
      <trkpt lat="48.59809" lon="1.95806">
        <ele>123.1</ele>
        <time>2023-10-26T07:11:57Z</time>
      </trkpt>
      <trkpt lat="48.59815" lon="1.95795">
        <ele>123.2</ele>
        <time>2023-10-26T07:12:04Z</time>
      </trkpt>
      <trkpt lat="48.59822" lon="1.95785">
        <ele>123.2</ele>
        <time>2023-10-26T07:12:12Z</time>
      </trkpt>
      <trkpt lat="48.59829" lon="1.95775">
        <ele>123</ele>
        <time>2023-10-26T07:12:20Z</time>
      </trkpt>
      <trkpt lat="48.59835" lon="1.95763">
        <ele>123</ele>
        <time>2023-10-26T07:12:26Z</time>
      </trkpt>
      <trkpt lat="48.59838" lon="1.95748">
        <ele>123</ele>
        <time>2023-10-26T07:12:33Z</time>
      </trkpt>
      <trkpt lat="48.59844" lon="1.95737">
        <ele>122.7</ele>
        <time>2023-10-26T07:12:39Z</time>
      </trkpt>
      <trkpt lat="48.5985" lon="1.95726">
        <ele>122.7</ele>
        <time>2023-10-26T07:12:44Z</time>
      </trkpt>
      <trkpt lat="48.59857" lon="1.95715">
        <ele>122.6</ele>
        <time>2023-10-26T07:12:51Z</time>
      </trkpt>
      <trkpt lat="48.59862" lon="1.95703">
        <ele>122.3</ele>
        <time>2023-10-26T07:12:59Z</time>
      </trkpt>
      <trkpt lat="48.59868" lon="1.95692">
        <ele>122.2</ele>
        <time>2023-10-26T07:13:08Z</time>
      </trkpt>
      <trkpt lat="48.59873" lon="1.95681">
        <ele>122.2</ele>
        <time>2023-10-26T07:13:15Z</time>
      </trkpt>
      <trkpt lat="48.59878" lon="1.95667">
        <ele>122.2</ele>
        <time>2023-10-26T07:13:22Z</time>
      </trkpt>
      <trkpt lat="48.59883" lon="1.95655">
        <ele>122.3</ele>
        <time>2023-10-26T07:13:30Z</time>
      </trkpt>
      <trkpt lat="48.5989" lon="1.95644">
        <ele>122.2</ele>
        <time>2023-10-26T07:13:37Z</time>
      </trkpt>
      <trkpt lat="48.59897" lon="1.95633">
        <ele>122.1</ele>
        <time>2023-10-26T07:13:45Z</time>
      </trkpt>
      <trkpt lat="48.59902" lon="1.95622">
        <ele>121.8</ele>
        <time>2023-10-26T07:13:52Z</time>
      </trkpt>
      <trkpt lat="48.59907" lon="1.95609">
        <ele>121.6</ele>
        <time>2023-10-26T07:14:00Z</time>
      </trkpt>
      <trkpt lat="48.5991" lon="1.95595">
        <ele>121.2</ele>
        <time>2023-10-26T07:14:07Z</time>
      </trkpt>
      <trkpt lat="48.59915" lon="1.95582">
        <ele>120.9</ele>
        <time>2023-10-26T07:14:14Z</time>
      </trkpt>
      <trkpt lat="48.59921" lon="1.95571">
        <ele>120.6</ele>
        <time>2023-10-26T07:14:23Z</time>
      </trkpt>
      <trkpt lat="48.59928" lon="1.95561">
        <ele>120.5</ele>
        <time>2023-10-26T07:14:30Z</time>
      </trkpt>
      <trkpt lat="48.59934" lon="1.95552">
        <ele>120.6</ele>
        <time>2023-10-26T07:14:37Z</time>
      </trkpt>
      <trkpt lat="48.59939" lon="1.9554">
        <ele>120.4</ele>
        <time>2023-10-26T07:14:43Z</time>
      </trkpt>
      <trkpt lat="48.59945" lon="1.95528">
        <ele>120</ele>
        <time>2023-10-26T07:14:52Z</time>
      </trkpt>
      <trkpt lat="48.59951" lon="1.95517">
        <ele>119.1</ele>
        <time>2023-10-26T07:15:00Z</time>
      </trkpt>
      <trkpt lat="48.59958" lon="1.95505">
        <ele>118.2</ele>
        <time>2023-10-26T07:15:08Z</time>
      </trkpt>
      <trkpt lat="48.5996" lon="1.9549">
        <ele>117.5</ele>
        <time>2023-10-26T07:15:16Z</time>
      </trkpt>
      <trkpt lat="48.59965" lon="1.95477">
        <ele>116.7</ele>
        <time>2023-10-26T07:15:24Z</time>
      </trkpt>
      <trkpt lat="48.59972" lon="1.95466">
        <ele>115.8</ele>
        <time>2023-10-26T07:15:33Z</time>
      </trkpt>
      <trkpt lat="48.59979" lon="1.95455">
        <ele>115.1</ele>
        <time>2023-10-26T07:15:41Z</time>
      </trkpt>
      <trkpt lat="48.59984" lon="1.95443">
        <ele>114.6</ele>
        <time>2023-10-26T07:15:48Z</time>
      </trkpt>
      <trkpt lat="48.59989" lon="1.9543">
        <ele>114.4</ele>
        <time>2023-10-26T07:15:56Z</time>
      </trkpt>
      <trkpt lat="48.59994" lon="1.95418">
        <ele>114.2</ele>
        <time>2023-10-26T07:16:03Z</time>
      </trkpt>
      <trkpt lat="48.59999" lon="1.95406">
        <ele>114.1</ele>
        <time>2023-10-26T07:16:10Z</time>
      </trkpt>
      <trkpt lat="48.60003" lon="1.95392">
        <ele>114</ele>
        <time>2023-10-26T07:16:17Z</time>
      </trkpt>
      <trkpt lat="48.60008" lon="1.9538">
        <ele>113.9</ele>
        <time>2023-10-26T07:16:25Z</time>
      </trkpt>
      <trkpt lat="48.60014" lon="1.9537">
        <ele>113.6</ele>
        <time>2023-10-26T07:16:33Z</time>
      </trkpt>
      <trkpt lat="48.60021" lon="1.9536">
        <ele>113.2</ele>
        <time>2023-10-26T07:16:41Z</time>
      </trkpt>
      <trkpt lat="48.60027" lon="1.95348">
        <ele>113</ele>
        <time>2023-10-26T07:16:51Z</time>
      </trkpt>
      <trkpt lat="48.60031" lon="1.95335">
        <ele>113</ele>
        <time>2023-10-26T07:16:59Z</time>
      </trkpt>
      <trkpt lat="48.60038" lon="1.95325">
        <ele>113</ele>
        <time>2023-10-26T07:17:06Z</time>
      </trkpt>
      <trkpt lat="48.60046" lon="1.95317">
        <ele>113</ele>
        <time>2023-10-26T07:17:13Z</time>
      </trkpt>
      <trkpt lat="48.60055" lon="1.9531">
        <ele>113</ele>
        <time>2023-10-26T07:17:24Z</time>
      </trkpt>
      <trkpt lat="48.60063" lon="1.95301">
        <ele>112.8</ele>
        <time>2023-10-26T07:17:31Z</time>
      </trkpt>
      <trkpt lat="48.60069" lon="1.95288">
        <ele>112.8</ele>
        <time>2023-10-26T07:17:39Z</time>
      </trkpt>
      <trkpt lat="48.60077" lon="1.95282">
        <ele>112.9</ele>
        <time>2023-10-26T07:17:48Z</time>
      </trkpt>
      <trkpt lat="48.60085" lon="1.95287">
        <ele>112.7</ele>
        <time>2023-10-26T07:17:55Z</time>
      </trkpt>
      <trkpt lat="48.60093" lon="1.95295">
        <ele>112.4</ele>
        <time>2023-10-26T07:18:03Z</time>
      </trkpt>
      <trkpt lat="48.60102" lon="1.95303">
        <ele>112.1</ele>
        <time>2023-10-26T07:18:11Z</time>
      </trkpt>
      <trkpt lat="48.60111" lon="1.95309">
        <ele>112</ele>
        <time>2023-10-26T07:18:18Z</time>
      </trkpt>
      <trkpt lat="48.60119" lon="1.95318">
        <ele>112</ele>
        <time>2023-10-26T07:18:25Z</time>
      </trkpt>
      <trkpt lat="48.60127" lon="1.95325">
        <ele>112</ele>
        <time>2023-10-26T07:18:32Z</time>
      </trkpt>
      <trkpt lat="48.60136" lon="1.95331">
        <ele>112</ele>
        <time>2023-10-26T07:18:42Z</time>
      </trkpt>
      <trkpt lat="48.60145" lon="1.95339">
        <ele>112.2</ele>
        <time>2023-10-26T07:18:55Z</time>
      </trkpt>
      <trkpt lat="48.60152" lon="1.95349">
        <ele>112.6</ele>
        <time>2023-10-26T07:19:03Z</time>
      </trkpt>
      <trkpt lat="48.60161" lon="1.95356">
        <ele>112.8</ele>
        <time>2023-10-26T07:19:09Z</time>
      </trkpt>
      <trkpt lat="48.6017" lon="1.95365">
        <ele>112.9</ele>
        <time>2023-10-26T07:19:16Z</time>
      </trkpt>
      <trkpt lat="48.60176" lon="1.95376">
        <ele>112.7</ele>
        <time>2023-10-26T07:19:22Z</time>
      </trkpt>
      <trkpt lat="48.60184" lon="1.95384">
        <ele>112.4</ele>
        <time>2023-10-26T07:19:28Z</time>
      </trkpt>
      <trkpt lat="48.60188" lon="1.95397">
        <ele>112.5</ele>
        <time>2023-10-26T07:19:36Z</time>
      </trkpt>
      <trkpt lat="48.60195" lon="1.95409">
        <ele>112.7</ele>
        <time>2023-10-26T07:19:43Z</time>
      </trkpt>
      <trkpt lat="48.60204" lon="1.95416">
        <ele>112.6</ele>
        <time>2023-10-26T07:19:49Z</time>
      </trkpt>
      <trkpt lat="48.60212" lon="1.95422">
        <ele>112.4</ele>
        <time>2023-10-26T07:19:56Z</time>
      </trkpt>
      <trkpt lat="48.6022" lon="1.95429">
        <ele>112.1</ele>
        <time>2023-10-26T07:20:02Z</time>
      </trkpt>
      <trkpt lat="48.60228" lon="1.95436">
        <ele>112</ele>
        <time>2023-10-26T07:20:08Z</time>
      </trkpt>
      <trkpt lat="48.60236" lon="1.95446">
        <ele>112</ele>
        <time>2023-10-26T07:20:14Z</time>
      </trkpt>
      <trkpt lat="48.60244" lon="1.95454">
        <ele>112</ele>
        <time>2023-10-26T07:20:20Z</time>
      </trkpt>
      <trkpt lat="48.60253" lon="1.95462">
        <ele>111.9</ele>
        <time>2023-10-26T07:20:26Z</time>
      </trkpt>
      <trkpt lat="48.60261" lon="1.9547">
        <ele>111.6</ele>
        <time>2023-10-26T07:20:33Z</time>
      </trkpt>
      <trkpt lat="48.60265" lon="1.95483">
        <ele>111.4</ele>
        <time>2023-10-26T07:20:43Z</time>
      </trkpt>
      <trkpt lat="48.60271" lon="1.95495">
        <ele>111.3</ele>
        <time>2023-10-26T07:20:54Z</time>
      </trkpt>
      <trkpt lat="48.6028" lon="1.95498">
        <ele>111</ele>
        <time>2023-10-26T07:21:01Z</time>
      </trkpt>
      <trkpt lat="48.60288" lon="1.95503">
        <ele>111</ele>
        <time>2023-10-26T07:21:08Z</time>
      </trkpt>
      <trkpt lat="48.60294" lon="1.95514">
        <ele>111</ele>
        <time>2023-10-26T07:21:15Z</time>
      </trkpt>
      <trkpt lat="48.60302" lon="1.95525">
        <ele>111</ele>
        <time>2023-10-26T07:21:23Z</time>
      </trkpt>
      <trkpt lat="48.6031" lon="1.95533">
        <ele>110.9</ele>
        <time>2023-10-26T07:21:30Z</time>
      </trkpt>
      <trkpt lat="48.60317" lon="1.95543">
        <ele>110.6</ele>
        <time>2023-10-26T07:21:36Z</time>
      </trkpt>
      <trkpt lat="48.60324" lon="1.95553">
        <ele>110.3</ele>
        <time>2023-10-26T07:21:43Z</time>
      </trkpt>
      <trkpt lat="48.60333" lon="1.95559">
        <ele>110</ele>
        <time>2023-10-26T07:21:49Z</time>
      </trkpt>
      <trkpt lat="48.60341" lon="1.95566">
        <ele>110</ele>
        <time>2023-10-26T07:21:55Z</time>
      </trkpt>
      <trkpt lat="48.60348" lon="1.95575">
        <ele>110</ele>
        <time>2023-10-26T07:22:01Z</time>
      </trkpt>
      <trkpt lat="48.60356" lon="1.95583">
        <ele>110</ele>
        <time>2023-10-26T07:22:07Z</time>
      </trkpt>
      <trkpt lat="48.60365" lon="1.9559">
        <ele>110</ele>
        <time>2023-10-26T07:22:14Z</time>
      </trkpt>
      <trkpt lat="48.60372" lon="1.95597">
        <ele>110</ele>
        <time>2023-10-26T07:22:32Z</time>
      </trkpt>
      <trkpt lat="48.60378" lon="1.95586">
        <ele>110</ele>
        <time>2023-10-26T07:23:45Z</time>
      </trkpt>
      <trkpt lat="48.60383" lon="1.95574">
        <ele>110</ele>
        <time>2023-10-26T07:23:58Z</time>
      </trkpt>
      <trkpt lat="48.6039" lon="1.95564">
        <ele>110</ele>
        <time>2023-10-26T07:24:05Z</time>
      </trkpt>
      <trkpt lat="48.60395" lon="1.95551">
        <ele>110</ele>
        <time>2023-10-26T07:24:12Z</time>
      </trkpt>
      <trkpt lat="48.60398" lon="1.95538">
        <ele>110</ele>
        <time>2023-10-26T07:24:17Z</time>
      </trkpt>
      <trkpt lat="48.60402" lon="1.95524">
        <ele>110</ele>
        <time>2023-10-26T07:24:23Z</time>
      </trkpt>
      <trkpt lat="48.60406" lon="1.95511">
        <ele>110</ele>
        <time>2023-10-26T07:24:29Z</time>
      </trkpt>
      <trkpt lat="48.60413" lon="1.95499">
        <ele>110</ele>
        <time>2023-10-26T07:24:36Z</time>
      </trkpt>
      <trkpt lat="48.60418" lon="1.95487">
        <ele>110</ele>
        <time>2023-10-26T07:24:42Z</time>
      </trkpt>
      <trkpt lat="48.60425" lon="1.95477">
        <ele>110</ele>
        <time>2023-10-26T07:24:50Z</time>
      </trkpt>
      <trkpt lat="48.60431" lon="1.95467">
        <ele>110</ele>
        <time>2023-10-26T07:24:57Z</time>
      </trkpt>
      <trkpt lat="48.60437" lon="1.95456">
        <ele>110</ele>
        <time>2023-10-26T07:25:06Z</time>
      </trkpt>
      <trkpt lat="48.60442" lon="1.95444">
        <ele>110</ele>
        <time>2023-10-26T07:25:12Z</time>
      </trkpt>
      <trkpt lat="48.60449" lon="1.95433">
        <ele>110.4</ele>
        <time>2023-10-26T07:25:19Z</time>
      </trkpt>
      <trkpt lat="48.60456" lon="1.9542">
        <ele>110.5</ele>
        <time>2023-10-26T07:25:26Z</time>
      </trkpt>
      <trkpt lat="48.60461" lon="1.95408">
        <ele>110.4</ele>
        <time>2023-10-26T07:25:33Z</time>
      </trkpt>
      <trkpt lat="48.60466" lon="1.95395">
        <ele>110.2</ele>
        <time>2023-10-26T07:25:40Z</time>
      </trkpt>
      <trkpt lat="48.60472" lon="1.95383">
        <ele>110.2</ele>
        <time>2023-10-26T07:25:48Z</time>
      </trkpt>
      <trkpt lat="48.60479" lon="1.95371">
        <ele>110.5</ele>
        <time>2023-10-26T07:25:56Z</time>
      </trkpt>
      <trkpt lat="48.60482" lon="1.95357">
        <ele>110.7</ele>
        <time>2023-10-26T07:26:03Z</time>
      </trkpt>
      <trkpt lat="48.60486" lon="1.95344">
        <ele>110.5</ele>
        <time>2023-10-26T07:26:10Z</time>
      </trkpt>
      <trkpt lat="48.60493" lon="1.95335">
        <ele>110.3</ele>
        <time>2023-10-26T07:26:17Z</time>
      </trkpt>
      <trkpt lat="48.60498" lon="1.95324">
        <ele>110.4</ele>
        <time>2023-10-26T07:26:24Z</time>
      </trkpt>
      <trkpt lat="48.60505" lon="1.95314">
        <ele>110.7</ele>
        <time>2023-10-26T07:26:31Z</time>
      </trkpt>
      <trkpt lat="48.60511" lon="1.95302">
        <ele>111</ele>
        <time>2023-10-26T07:26:38Z</time>
      </trkpt>
      <trkpt lat="48.60515" lon="1.9529">
        <ele>111</ele>
        <time>2023-10-26T07:26:44Z</time>
      </trkpt>
      <trkpt lat="48.6052" lon="1.95278">
        <ele>111</ele>
        <time>2023-10-26T07:26:50Z</time>
      </trkpt>
      <trkpt lat="48.60524" lon="1.95264">
        <ele>111</ele>
        <time>2023-10-26T07:26:56Z</time>
      </trkpt>
      <trkpt lat="48.60531" lon="1.95255">
        <ele>111</ele>
        <time>2023-10-26T07:27:03Z</time>
      </trkpt>
      <trkpt lat="48.60537" lon="1.95244">
        <ele>111</ele>
        <time>2023-10-26T07:27:10Z</time>
      </trkpt>
      <trkpt lat="48.60542" lon="1.95232">
        <ele>111</ele>
        <time>2023-10-26T07:27:17Z</time>
      </trkpt>
      <trkpt lat="48.60548" lon="1.9522">
        <ele>111</ele>
        <time>2023-10-26T07:27:25Z</time>
      </trkpt>
      <trkpt lat="48.60554" lon="1.9521">
        <ele>111</ele>
        <time>2023-10-26T07:27:32Z</time>
      </trkpt>
      <trkpt lat="48.6056" lon="1.95199">
        <ele>111</ele>
        <time>2023-10-26T07:27:39Z</time>
      </trkpt>
      <trkpt lat="48.6057" lon="1.95205">
        <ele>111</ele>
        <time>2023-10-26T07:27:56Z</time>
      </trkpt>
      <trkpt lat="48.60573" lon="1.9522">
        <ele>111</ele>
        <time>2023-10-26T07:28:08Z</time>
      </trkpt>
      <trkpt lat="48.60573" lon="1.95235">
        <ele>111</ele>
        <time>2023-10-26T07:28:14Z</time>
      </trkpt>
      <trkpt lat="48.60573" lon="1.95249">
        <ele>111</ele>
        <time>2023-10-26T07:28:24Z</time>
      </trkpt>
      <trkpt lat="48.60572" lon="1.95267">
        <ele>110.7</ele>
        <time>2023-10-26T07:28:31Z</time>
      </trkpt>
      <trkpt lat="48.60573" lon="1.95281">
        <ele>110.3</ele>
        <time>2023-10-26T07:28:47Z</time>
      </trkpt>
      <trkpt lat="48.60578" lon="1.95294">
        <ele>110.1</ele>
        <time>2023-10-26T07:28:52Z</time>
      </trkpt>
      <trkpt lat="48.60581" lon="1.95309">
        <ele>110</ele>
        <time>2023-10-26T07:28:58Z</time>
      </trkpt>
      <trkpt lat="48.60584" lon="1.95323">
        <ele>110</ele>
        <time>2023-10-26T07:29:04Z</time>
      </trkpt>
      <trkpt lat="48.60586" lon="1.95345">
        <ele>109.6</ele>
        <time>2023-10-26T07:29:09Z</time>
      </trkpt>
      <trkpt lat="48.6059" lon="1.9536">
        <ele>109.3</ele>
        <time>2023-10-26T07:29:18Z</time>
      </trkpt>
      <trkpt lat="48.60589" lon="1.95374">
        <ele>109.1</ele>
        <time>2023-10-26T07:29:25Z</time>
      </trkpt>
      <trkpt lat="48.60593" lon="1.95387">
        <ele>109</ele>
        <time>2023-10-26T07:29:34Z</time>
      </trkpt>
      <trkpt lat="48.60594" lon="1.95402">
        <ele>109</ele>
        <time>2023-10-26T07:29:41Z</time>
      </trkpt>
      <trkpt lat="48.60598" lon="1.95419">
        <ele>109</ele>
        <time>2023-10-26T07:29:49Z</time>
      </trkpt>
      <trkpt lat="48.60605" lon="1.95433">
        <ele>109</ele>
        <time>2023-10-26T07:30:04Z</time>
      </trkpt>
      <trkpt lat="48.60604" lon="1.95448">
        <ele>109</ele>
        <time>2023-10-26T07:30:10Z</time>
      </trkpt>
      <trkpt lat="48.60606" lon="1.95463">
        <ele>109</ele>
        <time>2023-10-26T07:30:15Z</time>
      </trkpt>
      <trkpt lat="48.60603" lon="1.95479">
        <ele>109</ele>
        <time>2023-10-26T07:30:17Z</time>
      </trkpt>
      <trkpt lat="48.60609" lon="1.9549">
        <ele>109</ele>
        <time>2023-10-26T07:30:35Z</time>
      </trkpt>
      <trkpt lat="48.60612" lon="1.95515">
        <ele>109</ele>
        <time>2023-10-26T07:30:41Z</time>
      </trkpt>
      <trkpt lat="48.60612" lon="1.95529">
        <ele>108.9</ele>
        <time>2023-10-26T07:30:59Z</time>
      </trkpt>
      <trkpt lat="48.60612" lon="1.95543">
        <ele>108.4</ele>
        <time>2023-10-26T07:31:05Z</time>
      </trkpt>
      <trkpt lat="48.60613" lon="1.95558">
        <ele>108</ele>
        <time>2023-10-26T07:31:11Z</time>
      </trkpt>
      <trkpt lat="48.60618" lon="1.95571">
        <ele>108</ele>
        <time>2023-10-26T07:31:17Z</time>
      </trkpt>
      <trkpt lat="48.60618" lon="1.95586">
        <ele>108</ele>
        <time>2023-10-26T07:31:19Z</time>
      </trkpt>
      <trkpt lat="48.60624" lon="1.95601">
        <ele>108</ele>
        <time>2023-10-26T07:31:40Z</time>
      </trkpt>
      <trkpt lat="48.60629" lon="1.95614">
        <ele>108</ele>
        <time>2023-10-26T07:31:44Z</time>
      </trkpt>
      <trkpt lat="48.6064" lon="1.95625">
        <ele>108</ele>
        <time>2023-10-26T07:31:47Z</time>
      </trkpt>
      <trkpt lat="48.60647" lon="1.95634">
        <ele>108</ele>
        <time>2023-10-26T07:31:58Z</time>
      </trkpt>
      <trkpt lat="48.60655" lon="1.95642">
        <ele>108</ele>
        <time>2023-10-26T07:32:04Z</time>
      </trkpt>
      <trkpt lat="48.60664" lon="1.95647">
        <ele>108</ele>
        <time>2023-10-26T07:32:10Z</time>
      </trkpt>
      <trkpt lat="48.60674" lon="1.95649">
        <ele>107.8</ele>
        <time>2023-10-26T07:32:16Z</time>
      </trkpt>
      <trkpt lat="48.60683" lon="1.95654">
        <ele>107.7</ele>
        <time>2023-10-26T07:32:24Z</time>
      </trkpt>
      <trkpt lat="48.6069" lon="1.95665">
        <ele>108</ele>
        <time>2023-10-26T07:32:31Z</time>
      </trkpt>
      <trkpt lat="48.60692" lon="1.95679">
        <ele>108</ele>
        <time>2023-10-26T07:32:40Z</time>
      </trkpt>
      <trkpt lat="48.60693" lon="1.95694">
        <ele>108</ele>
        <time>2023-10-26T07:32:49Z</time>
      </trkpt>
      <trkpt lat="48.60695" lon="1.95709">
        <ele>108</ele>
        <time>2023-10-26T07:32:57Z</time>
      </trkpt>
      <trkpt lat="48.60695" lon="1.95725">
        <ele>108</ele>
        <time>2023-10-26T07:33:04Z</time>
      </trkpt>
      <trkpt lat="48.60699" lon="1.95738">
        <ele>107.9</ele>
        <time>2023-10-26T07:33:10Z</time>
      </trkpt>
      <trkpt lat="48.60705" lon="1.9575">
        <ele>107.6</ele>
        <time>2023-10-26T07:33:16Z</time>
      </trkpt>
      <trkpt lat="48.60707" lon="1.95764">
        <ele>107.6</ele>
        <time>2023-10-26T07:33:24Z</time>
      </trkpt>
      <trkpt lat="48.60704" lon="1.95779">
        <ele>107.6</ele>
        <time>2023-10-26T07:33:34Z</time>
      </trkpt>
      <trkpt lat="48.60702" lon="1.95793">
        <ele>107.3</ele>
        <time>2023-10-26T07:33:42Z</time>
      </trkpt>
      <trkpt lat="48.60701" lon="1.95808">
        <ele>107</ele>
        <time>2023-10-26T07:33:48Z</time>
      </trkpt>
      <trkpt lat="48.60702" lon="1.95823">
        <ele>106.8</ele>
        <time>2023-10-26T07:33:55Z</time>
      </trkpt>
      <trkpt lat="48.607" lon="1.95837">
        <ele>106.8</ele>
        <time>2023-10-26T07:34:02Z</time>
      </trkpt>
      <trkpt lat="48.60696" lon="1.9585">
        <ele>106.9</ele>
        <time>2023-10-26T07:34:09Z</time>
      </trkpt>
      <trkpt lat="48.60692" lon="1.95865">
        <ele>107</ele>
        <time>2023-10-26T07:34:19Z</time>
      </trkpt>
      <trkpt lat="48.60687" lon="1.95877">
        <ele>107</ele>
        <time>2023-10-26T07:34:27Z</time>
      </trkpt>
      <trkpt lat="48.60681" lon="1.9589">
        <ele>107</ele>
        <time>2023-10-26T07:34:34Z</time>
      </trkpt>
      <trkpt lat="48.60676" lon="1.95902">
        <ele>107</ele>
        <time>2023-10-26T07:34:43Z</time>
      </trkpt>
      <trkpt lat="48.60676" lon="1.95917">
        <ele>107</ele>
        <time>2023-10-26T07:37:30Z</time>
      </trkpt>
      <trkpt lat="48.60679" lon="1.95938">
        <ele>107</ele>
        <time>2023-10-26T07:37:35Z</time>
      </trkpt>
      <trkpt lat="48.60679" lon="1.95952">
        <ele>107</ele>
        <time>2023-10-26T07:37:51Z</time>
      </trkpt>
      <trkpt lat="48.60674" lon="1.95964">
        <ele>107</ele>
        <time>2023-10-26T07:37:57Z</time>
      </trkpt>
      <trkpt lat="48.60669" lon="1.95977">
        <ele>107.3</ele>
        <time>2023-10-26T07:38:05Z</time>
      </trkpt>
      <trkpt lat="48.60661" lon="1.95984">
        <ele>107.8</ele>
        <time>2023-10-26T07:38:12Z</time>
      </trkpt>
      <trkpt lat="48.60653" lon="1.95991">
        <ele>108.4</ele>
        <time>2023-10-26T07:38:19Z</time>
      </trkpt>
      <trkpt lat="48.60645" lon="1.95999">
        <ele>108.9</ele>
        <time>2023-10-26T07:38:27Z</time>
      </trkpt>
      <trkpt lat="48.60635" lon="1.96008">
        <ele>109.5</ele>
        <time>2023-10-26T07:38:34Z</time>
      </trkpt>
      <trkpt lat="48.60626" lon="1.96002">
        <ele>109.1</ele>
        <time>2023-10-26T07:38:42Z</time>
      </trkpt>
      <trkpt lat="48.60617" lon="1.96002">
        <ele>109.1</ele>
        <time>2023-10-26T07:38:47Z</time>
      </trkpt>
      <trkpt lat="48.60606" lon="1.95998">
        <ele>109.1</ele>
        <time>2023-10-26T07:38:53Z</time>
      </trkpt>
      <trkpt lat="48.60598" lon="1.9599">
        <ele>108.8</ele>
        <time>2023-10-26T07:39:01Z</time>
      </trkpt>
      <trkpt lat="48.60589" lon="1.95987">
        <ele>108.8</ele>
        <time>2023-10-26T07:39:08Z</time>
      </trkpt>
      <trkpt lat="48.6058" lon="1.95981">
        <ele>108.9</ele>
        <time>2023-10-26T07:39:16Z</time>
      </trkpt>
      <trkpt lat="48.60574" lon="1.95972">
        <ele>109</ele>
        <time>2023-10-26T07:39:22Z</time>
      </trkpt>
      <trkpt lat="48.60566" lon="1.95964">
        <ele>109.6</ele>
        <time>2023-10-26T07:39:29Z</time>
      </trkpt>
      <trkpt lat="48.60556" lon="1.9596">
        <ele>110.1</ele>
        <time>2023-10-26T07:39:36Z</time>
      </trkpt>
      <trkpt lat="48.60548" lon="1.95953">
        <ele>110.2</ele>
        <time>2023-10-26T07:39:42Z</time>
      </trkpt>
      <trkpt lat="48.60541" lon="1.95945">
        <ele>110.1</ele>
        <time>2023-10-26T07:39:47Z</time>
      </trkpt>
      <trkpt lat="48.60534" lon="1.95936">
        <ele>110.2</ele>
        <time>2023-10-26T07:39:52Z</time>
      </trkpt>
      <trkpt lat="48.60525" lon="1.9593">
        <ele>110.7</ele>
        <time>2023-10-26T07:39:58Z</time>
      </trkpt>
      <trkpt lat="48.60517" lon="1.95921">
        <ele>110.7</ele>
        <time>2023-10-26T07:40:05Z</time>
      </trkpt>
      <trkpt lat="48.60509" lon="1.95912">
        <ele>110.3</ele>
        <time>2023-10-26T07:40:11Z</time>
      </trkpt>
      <trkpt lat="48.60503" lon="1.95902">
        <ele>109.9</ele>
        <time>2023-10-26T07:40:18Z</time>
      </trkpt>
      <trkpt lat="48.60495" lon="1.95896">
        <ele>109.9</ele>
        <time>2023-10-26T07:40:25Z</time>
      </trkpt>
      <trkpt lat="48.60485" lon="1.95891">
        <ele>110.2</ele>
        <time>2023-10-26T07:40:33Z</time>
      </trkpt>
      <trkpt lat="48.60476" lon="1.95886">
        <ele>110.6</ele>
        <time>2023-10-26T07:40:40Z</time>
      </trkpt>
      <trkpt lat="48.60467" lon="1.95885">
        <ele>110.7</ele>
        <time>2023-10-26T07:40:46Z</time>
      </trkpt>
      <trkpt lat="48.60457" lon="1.95882">
        <ele>110.5</ele>
        <time>2023-10-26T07:40:54Z</time>
      </trkpt>
      <trkpt lat="48.60453" lon="1.9587">
        <ele>109.6</ele>
        <time>2023-10-26T07:41:02Z</time>
      </trkpt>
      <trkpt lat="48.60443" lon="1.95875">
        <ele>110.1</ele>
        <time>2023-10-26T07:41:09Z</time>
      </trkpt>
      <trkpt lat="48.60433" lon="1.95874">
        <ele>110.3</ele>
        <time>2023-10-26T07:41:16Z</time>
      </trkpt>
      <trkpt lat="48.60424" lon="1.95873">
        <ele>110.6</ele>
        <time>2023-10-26T07:41:23Z</time>
      </trkpt>
      <trkpt lat="48.60416" lon="1.9587">
        <ele>110.7</ele>
        <time>2023-10-26T07:41:32Z</time>
      </trkpt>
      <trkpt lat="48.60406" lon="1.95865">
        <ele>110.6</ele>
        <time>2023-10-26T07:41:42Z</time>
      </trkpt>
      <trkpt lat="48.60396" lon="1.95865">
        <ele>110.9</ele>
        <time>2023-10-26T07:41:51Z</time>
      </trkpt>
      <trkpt lat="48.60387" lon="1.95865">
        <ele>111.1</ele>
        <time>2023-10-26T07:41:58Z</time>
      </trkpt>
      <trkpt lat="48.60378" lon="1.9586">
        <ele>111</ele>
        <time>2023-10-26T07:42:05Z</time>
      </trkpt>
      <trkpt lat="48.60367" lon="1.95859">
        <ele>110.9</ele>
        <time>2023-10-26T07:42:12Z</time>
      </trkpt>
      <trkpt lat="48.60357" lon="1.95856">
        <ele>111</ele>
        <time>2023-10-26T07:42:19Z</time>
      </trkpt>
      <trkpt lat="48.60348" lon="1.95853">
        <ele>111.2</ele>
        <time>2023-10-26T07:42:29Z</time>
      </trkpt>
      <trkpt lat="48.60341" lon="1.95844">
        <ele>111.1</ele>
        <time>2023-10-26T07:42:36Z</time>
      </trkpt>
      <trkpt lat="48.60333" lon="1.95836">
        <ele>111.1</ele>
        <time>2023-10-26T07:42:42Z</time>
      </trkpt>
      <trkpt lat="48.60325" lon="1.95828">
        <ele>110.9</ele>
        <time>2023-10-26T07:42:49Z</time>
      </trkpt>
      <trkpt lat="48.60316" lon="1.95825">
        <ele>110.9</ele>
        <time>2023-10-26T07:42:56Z</time>
      </trkpt>
      <trkpt lat="48.60306" lon="1.95819">
        <ele>111</ele>
        <time>2023-10-26T07:43:02Z</time>
      </trkpt>
      <trkpt lat="48.603" lon="1.95808">
        <ele>111</ele>
        <time>2023-10-26T07:43:09Z</time>
      </trkpt>
      <trkpt lat="48.60291" lon="1.95802">
        <ele>110.9</ele>
        <time>2023-10-26T07:43:17Z</time>
      </trkpt>
      <trkpt lat="48.60282" lon="1.95799">
        <ele>111</ele>
        <time>2023-10-26T07:43:26Z</time>
      </trkpt>
      <trkpt lat="48.60273" lon="1.95804">
        <ele>111.2</ele>
        <time>2023-10-26T07:43:44Z</time>
      </trkpt>
      <trkpt lat="48.60267" lon="1.95816">
        <ele>111.8</ele>
        <time>2023-10-26T07:43:54Z</time>
      </trkpt>
      <trkpt lat="48.6026" lon="1.95826">
        <ele>112.4</ele>
        <time>2023-10-26T07:44:03Z</time>
      </trkpt>
      <trkpt lat="48.60253" lon="1.95838">
        <ele>112.9</ele>
        <time>2023-10-26T07:44:11Z</time>
      </trkpt>
      <trkpt lat="48.60247" lon="1.95852">
        <ele>113.1</ele>
        <time>2023-10-26T07:44:19Z</time>
      </trkpt>
      <trkpt lat="48.60242" lon="1.95866">
        <ele>113.5</ele>
        <time>2023-10-26T07:44:25Z</time>
      </trkpt>
      <trkpt lat="48.60235" lon="1.95877">
        <ele>114.1</ele>
        <time>2023-10-26T07:44:31Z</time>
      </trkpt>
      <trkpt lat="48.60228" lon="1.95889">
        <ele>114.8</ele>
        <time>2023-10-26T07:44:38Z</time>
      </trkpt>
      <trkpt lat="48.60223" lon="1.95901">
        <ele>115.9</ele>
        <time>2023-10-26T07:44:47Z</time>
      </trkpt>
      <trkpt lat="48.60217" lon="1.95913">
        <ele>116.9</ele>
        <time>2023-10-26T07:44:55Z</time>
      </trkpt>
      <trkpt lat="48.60211" lon="1.95923">
        <ele>118.1</ele>
        <time>2023-10-26T07:45:04Z</time>
      </trkpt>
      <trkpt lat="48.60206" lon="1.95935">
        <ele>119.5</ele>
        <time>2023-10-26T07:45:12Z</time>
      </trkpt>
      <trkpt lat="48.602" lon="1.95947">
        <ele>121</ele>
        <time>2023-10-26T07:45:21Z</time>
      </trkpt>
      <trkpt lat="48.60195" lon="1.95959">
        <ele>122.1</ele>
        <time>2023-10-26T07:45:30Z</time>
      </trkpt>
      <trkpt lat="48.6019" lon="1.9597">
        <ele>122.5</ele>
        <time>2023-10-26T07:45:37Z</time>
      </trkpt>
      <trkpt lat="48.60185" lon="1.95983">
        <ele>123.7</ele>
        <time>2023-10-26T07:45:46Z</time>
      </trkpt>
      <trkpt lat="48.60179" lon="1.95994">
        <ele>124.6</ele>
        <time>2023-10-26T07:45:54Z</time>
      </trkpt>
      <trkpt lat="48.60172" lon="1.96004">
        <ele>124.7</ele>
        <time>2023-10-26T07:46:03Z</time>
      </trkpt>
      <trkpt lat="48.60167" lon="1.96016">
        <ele>124.6</ele>
        <time>2023-10-26T07:46:12Z</time>
      </trkpt>
      <trkpt lat="48.60162" lon="1.96028">
        <ele>124.5</ele>
        <time>2023-10-26T07:46:18Z</time>
      </trkpt>
      <trkpt lat="48.60159" lon="1.96041">
        <ele>124.6</ele>
        <time>2023-10-26T07:46:24Z</time>
      </trkpt>
      <trkpt lat="48.60156" lon="1.96056">
        <ele>124.9</ele>
        <time>2023-10-26T07:46:34Z</time>
      </trkpt>
      <trkpt lat="48.60156" lon="1.96071">
        <ele>125.6</ele>
        <time>2023-10-26T07:46:42Z</time>
      </trkpt>
      <trkpt lat="48.60155" lon="1.96085">
        <ele>126.2</ele>
        <time>2023-10-26T07:46:50Z</time>
      </trkpt>
      <trkpt lat="48.60152" lon="1.96099">
        <ele>126.5</ele>
        <time>2023-10-26T07:46:57Z</time>
      </trkpt>
      <trkpt lat="48.60154" lon="1.96112">
        <ele>127.1</ele>
        <time>2023-10-26T07:47:05Z</time>
      </trkpt>
      <trkpt lat="48.60153" lon="1.96127">
        <ele>127.6</ele>
        <time>2023-10-26T07:47:11Z</time>
      </trkpt>
      <trkpt lat="48.6015" lon="1.9614">
        <ele>127.9</ele>
        <time>2023-10-26T07:47:18Z</time>
      </trkpt>
      <trkpt lat="48.6015" lon="1.96154">
        <ele>128.5</ele>
        <time>2023-10-26T07:47:24Z</time>
      </trkpt>
      <trkpt lat="48.60151" lon="1.96168">
        <ele>129</ele>
        <time>2023-10-26T07:47:31Z</time>
      </trkpt>
      <trkpt lat="48.60152" lon="1.96182">
        <ele>129.3</ele>
        <time>2023-10-26T07:47:38Z</time>
      </trkpt>
      <trkpt lat="48.60153" lon="1.96198">
        <ele>129.7</ele>
        <time>2023-10-26T07:47:46Z</time>
      </trkpt>
      <trkpt lat="48.60154" lon="1.96213">
        <ele>130.5</ele>
        <time>2023-10-26T07:47:57Z</time>
      </trkpt>
      <trkpt lat="48.6016" lon="1.96223">
        <ele>131.6</ele>
        <time>2023-10-26T07:48:09Z</time>
      </trkpt>
      <trkpt lat="48.60166" lon="1.96233">
        <ele>132.8</ele>
        <time>2023-10-26T07:48:17Z</time>
      </trkpt>
      <trkpt lat="48.60174" lon="1.96242">
        <ele>134.5</ele>
        <time>2023-10-26T07:48:28Z</time>
      </trkpt>
      <trkpt lat="48.60182" lon="1.9625">
        <ele>136.2</ele>
        <time>2023-10-26T07:48:36Z</time>
      </trkpt>
      <trkpt lat="48.6019" lon="1.96259">
        <ele>137.1</ele>
        <time>2023-10-26T07:48:43Z</time>
      </trkpt>
      <trkpt lat="48.60197" lon="1.96269">
        <ele>137.6</ele>
        <time>2023-10-26T07:48:51Z</time>
      </trkpt>
      <trkpt lat="48.60205" lon="1.96277">
        <ele>138.1</ele>
        <time>2023-10-26T07:48:58Z</time>
      </trkpt>
      <trkpt lat="48.60213" lon="1.96285">
        <ele>139</ele>
        <time>2023-10-26T07:49:06Z</time>
      </trkpt>
      <trkpt lat="48.60221" lon="1.96295">
        <ele>139.8</ele>
        <time>2023-10-26T07:49:14Z</time>
      </trkpt>
      <trkpt lat="48.60229" lon="1.96303">
        <ele>140</ele>
        <time>2023-10-26T07:49:22Z</time>
      </trkpt>
      <trkpt lat="48.60237" lon="1.9631">
        <ele>139.8</ele>
        <time>2023-10-26T07:49:31Z</time>
      </trkpt>
      <trkpt lat="48.60246" lon="1.96318">
        <ele>139.5</ele>
        <time>2023-10-26T07:49:39Z</time>
      </trkpt>
      <trkpt lat="48.60253" lon="1.96325">
        <ele>139.3</ele>
        <time>2023-10-26T07:49:45Z</time>
      </trkpt>
      <trkpt lat="48.60262" lon="1.96335">
        <ele>139</ele>
        <time>2023-10-26T07:49:53Z</time>
      </trkpt>
      <trkpt lat="48.6027" lon="1.96342">
        <ele>138.7</ele>
        <time>2023-10-26T07:50:00Z</time>
      </trkpt>
      <trkpt lat="48.60278" lon="1.96351">
        <ele>138.4</ele>
        <time>2023-10-26T07:50:06Z</time>
      </trkpt>
      <trkpt lat="48.60285" lon="1.96361">
        <ele>138.6</ele>
        <time>2023-10-26T07:50:13Z</time>
      </trkpt>
      <trkpt lat="48.60293" lon="1.9637">
        <ele>139.1</ele>
        <time>2023-10-26T07:50:20Z</time>
      </trkpt>
      <trkpt lat="48.60301" lon="1.96377">
        <ele>139.7</ele>
        <time>2023-10-26T07:50:29Z</time>
      </trkpt>
      <trkpt lat="48.603" lon="1.96391">
        <ele>139.7</ele>
        <time>2023-10-26T07:53:35Z</time>
      </trkpt>
      <trkpt lat="48.60295" lon="1.96403">
        <ele>139.5</ele>
        <time>2023-10-26T07:53:43Z</time>
      </trkpt>
      <trkpt lat="48.60289" lon="1.96415">
        <ele>139.2</ele>
        <time>2023-10-26T07:53:51Z</time>
      </trkpt>
      <trkpt lat="48.60285" lon="1.96427">
        <ele>138.8</ele>
        <time>2023-10-26T07:53:57Z</time>
      </trkpt>
      <trkpt lat="48.60282" lon="1.96442">
        <ele>138.4</ele>
        <time>2023-10-26T07:54:04Z</time>
      </trkpt>
      <trkpt lat="48.6028" lon="1.96458">
        <ele>138.3</ele>
        <time>2023-10-26T07:54:12Z</time>
      </trkpt>
      <trkpt lat="48.60288" lon="1.96467">
        <ele>139.1</ele>
        <time>2023-10-26T07:54:20Z</time>
      </trkpt>
      <trkpt lat="48.60293" lon="1.96479">
        <ele>139.5</ele>
        <time>2023-10-26T07:54:28Z</time>
      </trkpt>
      <trkpt lat="48.60295" lon="1.96494">
        <ele>139.6</ele>
        <time>2023-10-26T07:54:36Z</time>
      </trkpt>
      <trkpt lat="48.60296" lon="1.96507">
        <ele>139.4</ele>
        <time>2023-10-26T07:54:43Z</time>
      </trkpt>
      <trkpt lat="48.60296" lon="1.96522">
        <ele>139.1</ele>
        <time>2023-10-26T07:54:52Z</time>
      </trkpt>
      <trkpt lat="48.60297" lon="1.96536">
        <ele>138.9</ele>
        <time>2023-10-26T07:54:59Z</time>
      </trkpt>
      <trkpt lat="48.603" lon="1.9655">
        <ele>139.2</ele>
        <time>2023-10-26T07:55:06Z</time>
      </trkpt>
      <trkpt lat="48.60301" lon="1.96564">
        <ele>139</ele>
        <time>2023-10-26T07:55:13Z</time>
      </trkpt>
      <trkpt lat="48.60304" lon="1.96578">
        <ele>139</ele>
        <time>2023-10-26T07:55:21Z</time>
      </trkpt>
      <trkpt lat="48.60299" lon="1.9659">
        <ele>138.1</ele>
        <time>2023-10-26T07:55:30Z</time>
      </trkpt>
      <trkpt lat="48.60297" lon="1.96604">
        <ele>137.8</ele>
        <time>2023-10-26T07:55:40Z</time>
      </trkpt>
      <trkpt lat="48.60297" lon="1.96619">
        <ele>137.5</ele>
        <time>2023-10-26T07:55:47Z</time>
      </trkpt>
      <trkpt lat="48.60295" lon="1.96634">
        <ele>136.7</ele>
        <time>2023-10-26T07:55:54Z</time>
      </trkpt>
      <trkpt lat="48.60296" lon="1.96647">
        <ele>136.3</ele>
        <time>2023-10-26T07:56:01Z</time>
      </trkpt>
      <trkpt lat="48.60303" lon="1.96658">
        <ele>137</ele>
        <time>2023-10-26T07:56:09Z</time>
      </trkpt>
      <trkpt lat="48.60307" lon="1.96671">
        <ele>137</ele>
        <time>2023-10-26T07:56:17Z</time>
      </trkpt>
      <trkpt lat="48.60312" lon="1.96683">
        <ele>137.4</ele>
        <time>2023-10-26T07:56:24Z</time>
      </trkpt>
      <trkpt lat="48.60315" lon="1.96696">
        <ele>137.3</ele>
        <time>2023-10-26T07:56:32Z</time>
      </trkpt>
      <trkpt lat="48.60317" lon="1.9671">
        <ele>137.4</ele>
        <time>2023-10-26T07:56:40Z</time>
      </trkpt>
      <trkpt lat="48.60327" lon="1.96718">
        <ele>138.8</ele>
        <time>2023-10-26T07:56:48Z</time>
      </trkpt>
      <trkpt lat="48.60335" lon="1.96724">
        <ele>140.1</ele>
        <time>2023-10-26T07:56:54Z</time>
      </trkpt>
      <trkpt lat="48.60344" lon="1.96726">
        <ele>140.7</ele>
        <time>2023-10-26T07:57:01Z</time>
      </trkpt>
      <trkpt lat="48.60354" lon="1.9673">
        <ele>141.5</ele>
        <time>2023-10-26T07:57:10Z</time>
      </trkpt>
      <trkpt lat="48.60361" lon="1.96742">
        <ele>142</ele>
        <time>2023-10-26T07:57:18Z</time>
      </trkpt>
      <trkpt lat="48.60367" lon="1.96754">
        <ele>142</ele>
        <time>2023-10-26T07:57:25Z</time>
      </trkpt>
      <trkpt lat="48.60374" lon="1.96766">
        <ele>141.9</ele>
        <time>2023-10-26T07:57:32Z</time>
      </trkpt>
      <trkpt lat="48.60381" lon="1.96774">
        <ele>141.9</ele>
        <time>2023-10-26T07:57:39Z</time>
      </trkpt>
      <trkpt lat="48.60391" lon="1.96777">
        <ele>142.1</ele>
        <time>2023-10-26T07:57:46Z</time>
      </trkpt>
      <trkpt lat="48.60399" lon="1.96785">
        <ele>142.3</ele>
        <time>2023-10-26T07:57:55Z</time>
      </trkpt>
      <trkpt lat="48.60406" lon="1.96775">
        <ele>142.6</ele>
        <time>2023-10-26T07:58:03Z</time>
      </trkpt>
      <trkpt lat="48.6041" lon="1.96763">
        <ele>142.9</ele>
        <time>2023-10-26T07:58:11Z</time>
      </trkpt>
      <trkpt lat="48.60415" lon="1.9675">
        <ele>143</ele>
        <time>2023-10-26T07:58:17Z</time>
      </trkpt>
      <trkpt lat="48.60418" lon="1.96737">
        <ele>142.9</ele>
        <time>2023-10-26T07:58:25Z</time>
      </trkpt>
      <trkpt lat="48.60424" lon="1.96727">
        <ele>142.5</ele>
        <time>2023-10-26T07:58:30Z</time>
      </trkpt>
      <trkpt lat="48.6043" lon="1.96715">
        <ele>141.9</ele>
        <time>2023-10-26T07:58:36Z</time>
      </trkpt>
      <trkpt lat="48.60436" lon="1.96703">
        <ele>141.4</ele>
        <time>2023-10-26T07:58:42Z</time>
      </trkpt>
      <trkpt lat="48.60441" lon="1.96691">
        <ele>141</ele>
        <time>2023-10-26T07:58:48Z</time>
      </trkpt>
      <trkpt lat="48.60446" lon="1.96677">
        <ele>140.2</ele>
        <time>2023-10-26T07:58:55Z</time>
      </trkpt>
      <trkpt lat="48.60453" lon="1.96665">
        <ele>139.4</ele>
        <time>2023-10-26T07:59:02Z</time>
      </trkpt>
      <trkpt lat="48.6046" lon="1.96655">
        <ele>139.1</ele>
        <time>2023-10-26T07:59:09Z</time>
      </trkpt>
      <trkpt lat="48.60465" lon="1.96644">
        <ele>138.7</ele>
        <time>2023-10-26T07:59:17Z</time>
      </trkpt>
      <trkpt lat="48.6047" lon="1.96633">
        <ele>138.5</ele>
        <time>2023-10-26T07:59:24Z</time>
      </trkpt>
      <trkpt lat="48.60475" lon="1.9662">
        <ele>138.4</ele>
        <time>2023-10-26T07:59:31Z</time>
      </trkpt>
      <trkpt lat="48.60482" lon="1.9661">
        <ele>138</ele>
        <time>2023-10-26T07:59:38Z</time>
      </trkpt>
      <trkpt lat="48.60486" lon="1.96596">
        <ele>138.4</ele>
        <time>2023-10-26T07:59:44Z</time>
      </trkpt>
      <trkpt lat="48.6049" lon="1.96582">
        <ele>138.7</ele>
        <time>2023-10-26T07:59:51Z</time>
      </trkpt>
      <trkpt lat="48.60495" lon="1.96568">
        <ele>138.4</ele>
        <time>2023-10-26T07:59:59Z</time>
      </trkpt>
      <trkpt lat="48.60504" lon="1.96569">
        <ele>137.5</ele>
        <time>2023-10-26T08:00:09Z</time>
      </trkpt>
      <trkpt lat="48.6051" lon="1.96581">
        <ele>136.6</ele>
        <time>2023-10-26T08:00:17Z</time>
      </trkpt>
      <trkpt lat="48.60519" lon="1.9659">
        <ele>135</ele>
        <time>2023-10-26T08:00:24Z</time>
      </trkpt>
      <trkpt lat="48.60527" lon="1.96596">
        <ele>133.6</ele>
        <time>2023-10-26T08:00:30Z</time>
      </trkpt>
      <trkpt lat="48.60535" lon="1.96602">
        <ele>132.1</ele>
        <time>2023-10-26T08:00:37Z</time>
      </trkpt>
      <trkpt lat="48.60544" lon="1.96609">
        <ele>130.3</ele>
        <time>2023-10-26T08:00:44Z</time>
      </trkpt>
      <trkpt lat="48.60553" lon="1.96616">
        <ele>128.4</ele>
        <time>2023-10-26T08:00:51Z</time>
      </trkpt>
      <trkpt lat="48.60559" lon="1.96625">
        <ele>127.1</ele>
        <time>2023-10-26T08:01:00Z</time>
      </trkpt>
      <trkpt lat="48.60566" lon="1.96636">
        <ele>126</ele>
        <time>2023-10-26T08:01:10Z</time>
      </trkpt>
      <trkpt lat="48.60574" lon="1.96644">
        <ele>124.8</ele>
        <time>2023-10-26T08:01:16Z</time>
      </trkpt>
      <trkpt lat="48.60583" lon="1.96651">
        <ele>123.5</ele>
        <time>2023-10-26T08:01:22Z</time>
      </trkpt>
      <trkpt lat="48.60591" lon="1.96658">
        <ele>122.7</ele>
        <time>2023-10-26T08:01:28Z</time>
      </trkpt>
      <trkpt lat="48.60601" lon="1.96661">
        <ele>122</ele>
        <time>2023-10-26T08:01:35Z</time>
      </trkpt>
      <trkpt lat="48.60609" lon="1.9667">
        <ele>121.2</ele>
        <time>2023-10-26T08:01:43Z</time>
      </trkpt>
      <trkpt lat="48.60616" lon="1.96679">
        <ele>120.7</ele>
        <time>2023-10-26T08:01:49Z</time>
      </trkpt>
      <trkpt lat="48.60624" lon="1.96686">
        <ele>120.2</ele>
        <time>2023-10-26T08:01:56Z</time>
      </trkpt>
      <trkpt lat="48.60633" lon="1.96692">
        <ele>119.5</ele>
        <time>2023-10-26T08:02:03Z</time>
      </trkpt>
      <trkpt lat="48.60641" lon="1.967">
        <ele>118.9</ele>
        <time>2023-10-26T08:02:11Z</time>
      </trkpt>
      <trkpt lat="48.60648" lon="1.96709">
        <ele>118.5</ele>
        <time>2023-10-26T08:02:19Z</time>
      </trkpt>
      <trkpt lat="48.60657" lon="1.96718">
        <ele>117.8</ele>
        <time>2023-10-26T08:02:26Z</time>
      </trkpt>
      <trkpt lat="48.60666" lon="1.96724">
        <ele>117</ele>
        <time>2023-10-26T08:02:31Z</time>
      </trkpt>
      <trkpt lat="48.60674" lon="1.96732">
        <ele>116.6</ele>
        <time>2023-10-26T08:02:37Z</time>
      </trkpt>
      <trkpt lat="48.60681" lon="1.96742">
        <ele>116.2</ele>
        <time>2023-10-26T08:02:45Z</time>
      </trkpt>
      <trkpt lat="48.60688" lon="1.96751">
        <ele>115.4</ele>
        <time>2023-10-26T08:02:52Z</time>
      </trkpt>
      <trkpt lat="48.60694" lon="1.96762">
        <ele>115</ele>
        <time>2023-10-26T08:02:59Z</time>
      </trkpt>
      <trkpt lat="48.60701" lon="1.9677">
        <ele>114.8</ele>
        <time>2023-10-26T08:03:07Z</time>
      </trkpt>
      <trkpt lat="48.6071" lon="1.96777">
        <ele>114.5</ele>
        <time>2023-10-26T08:03:15Z</time>
      </trkpt>
      <trkpt lat="48.60714" lon="1.96789">
        <ele>114.3</ele>
        <time>2023-10-26T08:04:05Z</time>
      </trkpt>
      <trkpt lat="48.60711" lon="1.96803">
        <ele>114.4</ele>
        <time>2023-10-26T08:04:14Z</time>
      </trkpt>
      <trkpt lat="48.60708" lon="1.96816">
        <ele>114.2</ele>
        <time>2023-10-26T08:04:23Z</time>
      </trkpt>
      <trkpt lat="48.60705" lon="1.96831">
        <ele>113.7</ele>
        <time>2023-10-26T08:04:31Z</time>
      </trkpt>
      <trkpt lat="48.60702" lon="1.96844">
        <ele>113.7</ele>
        <time>2023-10-26T08:04:47Z</time>
      </trkpt>
      <trkpt lat="48.60701" lon="1.96858">
        <ele>113.8</ele>
        <time>2023-10-26T08:04:55Z</time>
      </trkpt>
      <trkpt lat="48.60701" lon="1.96873">
        <ele>113.7</ele>
        <time>2023-10-26T08:05:03Z</time>
      </trkpt>
      <trkpt lat="48.60698" lon="1.96888">
        <ele>113.9</ele>
        <time>2023-10-26T08:05:10Z</time>
      </trkpt>
      <trkpt lat="48.60693" lon="1.96901">
        <ele>114</ele>
        <time>2023-10-26T08:05:17Z</time>
      </trkpt>
      <trkpt lat="48.60689" lon="1.96914">
        <ele>114.2</ele>
        <time>2023-10-26T08:05:26Z</time>
      </trkpt>
      <trkpt lat="48.60685" lon="1.96928">
        <ele>114.1</ele>
        <time>2023-10-26T08:05:33Z</time>
      </trkpt>
      <trkpt lat="48.60681" lon="1.96941">
        <ele>114</ele>
        <time>2023-10-26T08:05:40Z</time>
      </trkpt>
      <trkpt lat="48.60676" lon="1.96952">
        <ele>114.3</ele>
        <time>2023-10-26T08:05:47Z</time>
      </trkpt>
      <trkpt lat="48.60672" lon="1.96965">
        <ele>114.6</ele>
        <time>2023-10-26T08:05:55Z</time>
      </trkpt>
      <trkpt lat="48.60668" lon="1.96979">
        <ele>114.7</ele>
        <time>2023-10-26T08:06:02Z</time>
      </trkpt>
      <trkpt lat="48.60665" lon="1.96992">
        <ele>114.4</ele>
        <time>2023-10-26T08:06:10Z</time>
      </trkpt>
      <trkpt lat="48.60665" lon="1.97006">
        <ele>114.1</ele>
        <time>2023-10-26T08:06:19Z</time>
      </trkpt>
      <trkpt lat="48.60664" lon="1.97021">
        <ele>114.1</ele>
        <time>2023-10-26T08:06:26Z</time>
      </trkpt>
      <trkpt lat="48.60661" lon="1.97033">
        <ele>114</ele>
        <time>2023-10-26T08:06:33Z</time>
      </trkpt>
      <trkpt lat="48.60663" lon="1.97048">
        <ele>113.5</ele>
        <time>2023-10-26T08:06:41Z</time>
      </trkpt>
      <trkpt lat="48.6067" lon="1.97058">
        <ele>112.9</ele>
        <time>2023-10-26T08:06:49Z</time>
      </trkpt>
      <trkpt lat="48.60677" lon="1.97068">
        <ele>112.5</ele>
        <time>2023-10-26T08:06:56Z</time>
      </trkpt>
      <trkpt lat="48.60684" lon="1.9708">
        <ele>111.8</ele>
        <time>2023-10-26T08:07:03Z</time>
      </trkpt>
      <trkpt lat="48.60693" lon="1.97088">
        <ele>110.9</ele>
        <time>2023-10-26T08:07:09Z</time>
      </trkpt>
      <trkpt lat="48.60701" lon="1.97096">
        <ele>110.3</ele>
        <time>2023-10-26T08:07:15Z</time>
      </trkpt>
      <trkpt lat="48.60706" lon="1.97109">
        <ele>109.7</ele>
        <time>2023-10-26T08:07:23Z</time>
      </trkpt>
      <trkpt lat="48.60704" lon="1.97122">
        <ele>109.7</ele>
        <time>2023-10-26T08:07:30Z</time>
      </trkpt>
      <trkpt lat="48.60704" lon="1.97137">
        <ele>109.7</ele>
        <time>2023-10-26T08:07:38Z</time>
      </trkpt>
      <trkpt lat="48.60705" lon="1.97151">
        <ele>109.2</ele>
        <time>2023-10-26T08:07:45Z</time>
      </trkpt>
      <trkpt lat="48.60705" lon="1.97166">
        <ele>108.6</ele>
        <time>2023-10-26T08:07:53Z</time>
      </trkpt>
      <trkpt lat="48.60703" lon="1.9718">
        <ele>108.7</ele>
        <time>2023-10-26T08:07:59Z</time>
      </trkpt>
      <trkpt lat="48.60699" lon="1.97193">
        <ele>108.8</ele>
        <time>2023-10-26T08:08:05Z</time>
      </trkpt>
      <trkpt lat="48.60696" lon="1.97207">
        <ele>108.9</ele>
        <time>2023-10-26T08:08:12Z</time>
      </trkpt>
      <trkpt lat="48.60692" lon="1.9722">
        <ele>109.1</ele>
        <time>2023-10-26T08:08:18Z</time>
      </trkpt>
      <trkpt lat="48.60691" lon="1.97235">
        <ele>109.1</ele>
        <time>2023-10-26T08:08:25Z</time>
      </trkpt>
      <trkpt lat="48.60693" lon="1.97251">
        <ele>109</ele>
        <time>2023-10-26T08:08:32Z</time>
      </trkpt>
      <trkpt lat="48.60693" lon="1.97266">
        <ele>108.5</ele>
        <time>2023-10-26T08:08:40Z</time>
      </trkpt>
      <trkpt lat="48.60697" lon="1.9728">
        <ele>107.9</ele>
        <time>2023-10-26T08:08:46Z</time>
      </trkpt>
      <trkpt lat="48.60697" lon="1.97294">
        <ele>107.9</ele>
        <time>2023-10-26T08:08:53Z</time>
      </trkpt>
      <trkpt lat="48.60706" lon="1.9731">
        <ele>107.6</ele>
        <time>2023-10-26T08:09:01Z</time>
      </trkpt>
      <trkpt lat="48.60713" lon="1.9732">
        <ele>107.3</ele>
        <time>2023-10-26T08:09:21Z</time>
      </trkpt>
      <trkpt lat="48.60715" lon="1.97334">
        <ele>107.2</ele>
        <time>2023-10-26T08:09:27Z</time>
      </trkpt>
      <trkpt lat="48.60712" lon="1.97347">
        <ele>106.9</ele>
        <time>2023-10-26T08:09:33Z</time>
      </trkpt>
      <trkpt lat="48.60713" lon="1.97362">
        <ele>106.3</ele>
        <time>2023-10-26T08:09:39Z</time>
      </trkpt>
      <trkpt lat="48.60714" lon="1.97377">
        <ele>106.3</ele>
        <time>2023-10-26T08:09:47Z</time>
      </trkpt>
      <trkpt lat="48.60722" lon="1.97391">
        <ele>106</ele>
        <time>2023-10-26T08:09:54Z</time>
      </trkpt>
      <trkpt lat="48.60727" lon="1.97402">
        <ele>105.8</ele>
        <time>2023-10-26T08:10:01Z</time>
      </trkpt>
      <trkpt lat="48.60733" lon="1.97412">
        <ele>105.6</ele>
        <time>2023-10-26T08:10:16Z</time>
      </trkpt>
      <trkpt lat="48.60741" lon="1.97421">
        <ele>105.3</ele>
        <time>2023-10-26T08:10:24Z</time>
      </trkpt>
      <trkpt lat="48.60748" lon="1.97431">
        <ele>105.1</ele>
        <time>2023-10-26T08:10:31Z</time>
      </trkpt>
      <trkpt lat="48.60756" lon="1.97436">
        <ele>105</ele>
        <time>2023-10-26T08:10:50Z</time>
      </trkpt>
      <trkpt lat="48.60751" lon="1.9745">
        <ele>105</ele>
        <time>2023-10-26T08:11:42Z</time>
      </trkpt>
      <trkpt lat="48.60742" lon="1.97457">
        <ele>105.3</ele>
        <time>2023-10-26T08:11:48Z</time>
      </trkpt>
      <trkpt lat="48.60733" lon="1.97463">
        <ele>105.6</ele>
        <time>2023-10-26T08:11:55Z</time>
      </trkpt>
      <trkpt lat="48.60724" lon="1.97468">
        <ele>105.9</ele>
        <time>2023-10-26T08:12:01Z</time>
      </trkpt>
      <trkpt lat="48.60714" lon="1.97471">
        <ele>106</ele>
        <time>2023-10-26T08:12:08Z</time>
      </trkpt>
      <trkpt lat="48.60705" lon="1.97473">
        <ele>106</ele>
        <time>2023-10-26T08:12:14Z</time>
      </trkpt>
      <trkpt lat="48.60695" lon="1.97471">
        <ele>106</ele>
        <time>2023-10-26T08:12:20Z</time>
      </trkpt>
      <trkpt lat="48.60686" lon="1.97465">
        <ele>106.3</ele>
        <time>2023-10-26T08:12:28Z</time>
      </trkpt>
      <trkpt lat="48.60677" lon="1.9746">
        <ele>106.6</ele>
        <time>2023-10-26T08:12:35Z</time>
      </trkpt>
      <trkpt lat="48.60667" lon="1.97456">
        <ele>107</ele>
        <time>2023-10-26T08:12:41Z</time>
      </trkpt>
      <trkpt lat="48.6066" lon="1.97445">
        <ele>107.5</ele>
        <time>2023-10-26T08:12:48Z</time>
      </trkpt>
      <trkpt lat="48.60653" lon="1.97435">
        <ele>108</ele>
        <time>2023-10-26T08:12:55Z</time>
      </trkpt>
      <trkpt lat="48.60645" lon="1.97429">
        <ele>108.6</ele>
        <time>2023-10-26T08:13:01Z</time>
      </trkpt>
      <trkpt lat="48.60636" lon="1.97422">
        <ele>109.1</ele>
        <time>2023-10-26T08:13:08Z</time>
      </trkpt>
      <trkpt lat="48.60627" lon="1.97414">
        <ele>109.4</ele>
        <time>2023-10-26T08:13:15Z</time>
      </trkpt>
      <trkpt lat="48.6062" lon="1.97406">
        <ele>109.7</ele>
        <time>2023-10-26T08:13:22Z</time>
      </trkpt>
      <trkpt lat="48.60613" lon="1.97395">
        <ele>109.9</ele>
        <time>2023-10-26T08:13:32Z</time>
      </trkpt>
      <trkpt lat="48.60607" lon="1.97384">
        <ele>110.3</ele>
        <time>2023-10-26T08:13:39Z</time>
      </trkpt>
      <trkpt lat="48.60602" lon="1.97372">
        <ele>110.7</ele>
        <time>2023-10-26T08:13:48Z</time>
      </trkpt>
      <trkpt lat="48.60594" lon="1.97364">
        <ele>111</ele>
        <time>2023-10-26T08:13:56Z</time>
      </trkpt>
      <trkpt lat="48.60588" lon="1.97352">
        <ele>111.3</ele>
        <time>2023-10-26T08:14:05Z</time>
      </trkpt>
      <trkpt lat="48.6058" lon="1.97344">
        <ele>111.7</ele>
        <time>2023-10-26T08:14:13Z</time>
      </trkpt>
      <trkpt lat="48.60573" lon="1.97336">
        <ele>111.9</ele>
        <time>2023-10-26T08:14:20Z</time>
      </trkpt>
      <trkpt lat="48.60566" lon="1.97326">
        <ele>112</ele>
        <time>2023-10-26T08:14:29Z</time>
      </trkpt>
      <trkpt lat="48.60559" lon="1.97317">
        <ele>112</ele>
        <time>2023-10-26T08:14:37Z</time>
      </trkpt>
      <trkpt lat="48.6055" lon="1.97309">
        <ele>112.2</ele>
        <time>2023-10-26T08:14:46Z</time>
      </trkpt>
      <trkpt lat="48.6054" lon="1.97305">
        <ele>112.6</ele>
        <time>2023-10-26T08:14:54Z</time>
      </trkpt>
      <trkpt lat="48.60532" lon="1.97298">
        <ele>112.9</ele>
        <time>2023-10-26T08:15:03Z</time>
      </trkpt>
      <trkpt lat="48.60524" lon="1.97289">
        <ele>113.1</ele>
        <time>2023-10-26T08:15:10Z</time>
      </trkpt>
      <trkpt lat="48.60517" lon="1.97279">
        <ele>113.4</ele>
        <time>2023-10-26T08:15:17Z</time>
      </trkpt>
      <trkpt lat="48.60508" lon="1.97274">
        <ele>113.9</ele>
        <time>2023-10-26T08:15:23Z</time>
      </trkpt>
      <trkpt lat="48.60499" lon="1.97272">
        <ele>114.2</ele>
        <time>2023-10-26T08:15:30Z</time>
      </trkpt>
      <trkpt lat="48.60489" lon="1.97269">
        <ele>114.3</ele>
        <time>2023-10-26T08:15:38Z</time>
      </trkpt>
      <trkpt lat="48.6048" lon="1.97265">
        <ele>114.4</ele>
        <time>2023-10-26T08:15:45Z</time>
      </trkpt>
      <trkpt lat="48.6047" lon="1.97262">
        <ele>114.6</ele>
        <time>2023-10-26T08:15:50Z</time>
      </trkpt>
      <trkpt lat="48.60461" lon="1.9726">
        <ele>115</ele>
        <time>2023-10-26T08:15:56Z</time>
      </trkpt>
      <trkpt lat="48.60451" lon="1.97257">
        <ele>115.5</ele>
        <time>2023-10-26T08:16:04Z</time>
      </trkpt>
      <trkpt lat="48.60443" lon="1.9725">
        <ele>116</ele>
        <time>2023-10-26T08:16:11Z</time>
      </trkpt>
      <trkpt lat="48.60435" lon="1.97245">
        <ele>116.2</ele>
        <time>2023-10-26T08:16:17Z</time>
      </trkpt>
      <trkpt lat="48.60426" lon="1.97236">
        <ele>116.5</ele>
        <time>2023-10-26T08:16:25Z</time>
      </trkpt>
      <trkpt lat="48.60418" lon="1.9723">
        <ele>116.7</ele>
        <time>2023-10-26T08:16:31Z</time>
      </trkpt>
      <trkpt lat="48.60409" lon="1.97223">
        <ele>117</ele>
        <time>2023-10-26T08:16:39Z</time>
      </trkpt>
      <trkpt lat="48.60404" lon="1.97212">
        <ele>117.6</ele>
        <time>2023-10-26T08:16:48Z</time>
      </trkpt>
      <trkpt lat="48.60396" lon="1.97204">
        <ele>117.8</ele>
        <time>2023-10-26T08:16:56Z</time>
      </trkpt>
      <trkpt lat="48.60389" lon="1.97192">
        <ele>118.2</ele>
        <time>2023-10-26T08:17:05Z</time>
      </trkpt>
      <trkpt lat="48.60381" lon="1.97183">
        <ele>118.6</ele>
        <time>2023-10-26T08:17:13Z</time>
      </trkpt>
      <trkpt lat="48.60375" lon="1.97173">
        <ele>118.8</ele>
        <time>2023-10-26T08:17:20Z</time>
      </trkpt>
      <trkpt lat="48.60369" lon="1.97161">
        <ele>118.9</ele>
        <time>2023-10-26T08:17:28Z</time>
      </trkpt>
      <trkpt lat="48.60361" lon="1.97152">
        <ele>118.6</ele>
        <time>2023-10-26T08:17:36Z</time>
      </trkpt>
      <trkpt lat="48.60354" lon="1.97141">
        <ele>118.9</ele>
        <time>2023-10-26T08:17:45Z</time>
      </trkpt>
      <trkpt lat="48.60347" lon="1.9713">
        <ele>119.3</ele>
        <time>2023-10-26T08:17:53Z</time>
      </trkpt>
      <trkpt lat="48.60341" lon="1.97119">
        <ele>119.4</ele>
        <time>2023-10-26T08:18:01Z</time>
      </trkpt>
      <trkpt lat="48.60332" lon="1.97112">
        <ele>119</ele>
        <time>2023-10-26T08:18:09Z</time>
      </trkpt>
      <trkpt lat="48.60325" lon="1.97101">
        <ele>119.6</ele>
        <time>2023-10-26T08:18:16Z</time>
      </trkpt>
      <trkpt lat="48.60319" lon="1.97091">
        <ele>119.9</ele>
        <time>2023-10-26T08:18:24Z</time>
      </trkpt>
      <trkpt lat="48.60312" lon="1.97081">
        <ele>120</ele>
        <time>2023-10-26T08:18:32Z</time>
      </trkpt>
      <trkpt lat="48.60309" lon="1.97067">
        <ele>120.1</ele>
        <time>2023-10-26T08:18:40Z</time>
      </trkpt>
      <trkpt lat="48.60304" lon="1.97054">
        <ele>120.1</ele>
        <time>2023-10-26T08:18:47Z</time>
      </trkpt>
      <trkpt lat="48.60298" lon="1.97043">
        <ele>120.4</ele>
        <time>2023-10-26T08:18:54Z</time>
      </trkpt>
      <trkpt lat="48.60289" lon="1.97037">
        <ele>120.8</ele>
        <time>2023-10-26T08:19:02Z</time>
      </trkpt>
      <trkpt lat="48.60282" lon="1.97046">
        <ele>121.4</ele>
        <time>2023-10-26T08:19:15Z</time>
      </trkpt>
      <trkpt lat="48.60277" lon="1.9706">
        <ele>122.1</ele>
        <time>2023-10-26T08:19:24Z</time>
      </trkpt>
      <trkpt lat="48.60269" lon="1.97069">
        <ele>122.6</ele>
        <time>2023-10-26T08:19:31Z</time>
      </trkpt>
      <trkpt lat="48.60263" lon="1.97082">
        <ele>123.1</ele>
        <time>2023-10-26T08:19:40Z</time>
      </trkpt>
      <trkpt lat="48.60258" lon="1.97095">
        <ele>123.9</ele>
        <time>2023-10-26T08:19:48Z</time>
      </trkpt>
      <trkpt lat="48.60251" lon="1.97106">
        <ele>124.7</ele>
        <time>2023-10-26T08:19:54Z</time>
      </trkpt>
      <trkpt lat="48.60246" lon="1.97117">
        <ele>125.5</ele>
        <time>2023-10-26T08:20:02Z</time>
      </trkpt>
      <trkpt lat="48.60241" lon="1.97129">
        <ele>126.1</ele>
        <time>2023-10-26T08:20:10Z</time>
      </trkpt>
      <trkpt lat="48.60237" lon="1.97141">
        <ele>127</ele>
        <time>2023-10-26T08:20:17Z</time>
      </trkpt>
      <trkpt lat="48.6023" lon="1.97151">
        <ele>128.3</ele>
        <time>2023-10-26T08:20:24Z</time>
      </trkpt>
      <trkpt lat="48.60224" lon="1.97162">
        <ele>129.5</ele>
        <time>2023-10-26T08:20:31Z</time>
      </trkpt>
      <trkpt lat="48.60218" lon="1.97171">
        <ele>131</ele>
        <time>2023-10-26T08:20:37Z</time>
      </trkpt>
      <trkpt lat="48.60211" lon="1.97182">
        <ele>132.8</ele>
        <time>2023-10-26T08:20:44Z</time>
      </trkpt>
      <trkpt lat="48.60205" lon="1.97194">
        <ele>134.7</ele>
        <time>2023-10-26T08:20:53Z</time>
      </trkpt>
      <trkpt lat="48.60202" lon="1.97207">
        <ele>135.7</ele>
        <time>2023-10-26T08:21:03Z</time>
      </trkpt>
      <trkpt lat="48.60195" lon="1.97219">
        <ele>137.7</ele>
        <time>2023-10-26T08:21:12Z</time>
      </trkpt>
      <trkpt lat="48.60189" lon="1.97229">
        <ele>139.4</ele>
        <time>2023-10-26T08:21:22Z</time>
      </trkpt>
      <trkpt lat="48.60184" lon="1.97241">
        <ele>140.7</ele>
        <time>2023-10-26T08:21:30Z</time>
      </trkpt>
      <trkpt lat="48.60179" lon="1.97253">
        <ele>141.8</ele>
        <time>2023-10-26T08:21:38Z</time>
      </trkpt>
      <trkpt lat="48.60173" lon="1.97265">
        <ele>143</ele>
        <time>2023-10-26T08:21:46Z</time>
      </trkpt>
      <trkpt lat="48.60168" lon="1.97277">
        <ele>143.9</ele>
        <time>2023-10-26T08:21:52Z</time>
      </trkpt>
      <trkpt lat="48.60162" lon="1.97289">
        <ele>144.2</ele>
        <time>2023-10-26T08:22:02Z</time>
      </trkpt>
      <trkpt lat="48.60158" lon="1.97302">
        <ele>144.3</ele>
        <time>2023-10-26T08:22:10Z</time>
      </trkpt>
      <trkpt lat="48.60151" lon="1.97312">
        <ele>144.4</ele>
        <time>2023-10-26T08:22:18Z</time>
      </trkpt>
      <trkpt lat="48.60142" lon="1.97317">
        <ele>144.5</ele>
        <time>2023-10-26T08:22:38Z</time>
      </trkpt>
      <trkpt lat="48.60132" lon="1.97319">
        <ele>144.3</ele>
        <time>2023-10-26T08:22:46Z</time>
      </trkpt>
      <trkpt lat="48.60141" lon="1.97321">
        <ele>144.4</ele>
        <time>2023-10-26T08:23:41Z</time>
      </trkpt>
      <trkpt lat="48.6015" lon="1.97317">
        <ele>144.4</ele>
        <time>2023-10-26T08:23:49Z</time>
      </trkpt>
      <trkpt lat="48.60159" lon="1.97322">
        <ele>144.1</ele>
        <time>2023-10-26T08:25:32Z</time>
      </trkpt>
      <trkpt lat="48.60163" lon="1.97335">
        <ele>144</ele>
        <time>2023-10-26T08:25:44Z</time>
      </trkpt>
      <trkpt lat="48.6017" lon="1.97344">
        <ele>143.9</ele>
        <time>2023-10-26T08:25:51Z</time>
      </trkpt>
      <trkpt lat="48.60178" lon="1.97353">
        <ele>143.6</ele>
        <time>2023-10-26T08:26:00Z</time>
      </trkpt>
      <trkpt lat="48.60185" lon="1.97362">
        <ele>143.3</ele>
        <time>2023-10-26T08:26:09Z</time>
      </trkpt>
      <trkpt lat="48.60194" lon="1.97368">
        <ele>142.8</ele>
        <time>2023-10-26T08:26:15Z</time>
      </trkpt>
      <trkpt lat="48.60202" lon="1.97376">
        <ele>141.3</ele>
        <time>2023-10-26T08:26:22Z</time>
      </trkpt>
      <trkpt lat="48.60211" lon="1.97383">
        <ele>139.8</ele>
        <time>2023-10-26T08:26:28Z</time>
      </trkpt>
      <trkpt lat="48.60219" lon="1.97391">
        <ele>138.4</ele>
        <time>2023-10-26T08:26:35Z</time>
      </trkpt>
      <trkpt lat="48.60225" lon="1.97402">
        <ele>137</ele>
        <time>2023-10-26T08:26:42Z</time>
      </trkpt>
      <trkpt lat="48.60233" lon="1.97408">
        <ele>135.2</ele>
        <time>2023-10-26T08:26:48Z</time>
      </trkpt>
      <trkpt lat="48.60241" lon="1.97416">
        <ele>133.6</ele>
        <time>2023-10-26T08:26:54Z</time>
      </trkpt>
      <trkpt lat="48.6025" lon="1.97423">
        <ele>131.8</ele>
        <time>2023-10-26T08:27:00Z</time>
      </trkpt>
      <trkpt lat="48.60258" lon="1.9743">
        <ele>130.3</ele>
        <time>2023-10-26T08:27:06Z</time>
      </trkpt>
      <trkpt lat="48.60267" lon="1.9744">
        <ele>128.8</ele>
        <time>2023-10-26T08:27:13Z</time>
      </trkpt>
      <trkpt lat="48.60275" lon="1.97447">
        <ele>127.3</ele>
        <time>2023-10-26T08:27:20Z</time>
      </trkpt>
      <trkpt lat="48.60282" lon="1.97457">
        <ele>126.4</ele>
        <time>2023-10-26T08:27:28Z</time>
      </trkpt>
      <trkpt lat="48.60292" lon="1.97464">
        <ele>125</ele>
        <time>2023-10-26T08:27:36Z</time>
      </trkpt>
      <trkpt lat="48.603" lon="1.97471">
        <ele>123.8</ele>
        <time>2023-10-26T08:27:41Z</time>
      </trkpt>
      <trkpt lat="48.60309" lon="1.97478">
        <ele>122.7</ele>
        <time>2023-10-26T08:27:46Z</time>
      </trkpt>
      <trkpt lat="48.60315" lon="1.97488">
        <ele>122.2</ele>
        <time>2023-10-26T08:27:53Z</time>
      </trkpt>
      <trkpt lat="48.60322" lon="1.97496">
        <ele>121.7</ele>
        <time>2023-10-26T08:27:59Z</time>
      </trkpt>
      <trkpt lat="48.6033" lon="1.97503">
        <ele>121.4</ele>
        <time>2023-10-26T08:28:04Z</time>
      </trkpt>
      <trkpt lat="48.60339" lon="1.97511">
        <ele>121</ele>
        <time>2023-10-26T08:28:10Z</time>
      </trkpt>
      <trkpt lat="48.60347" lon="1.97521">
        <ele>120.8</ele>
        <time>2023-10-26T08:28:18Z</time>
      </trkpt>
      <trkpt lat="48.60354" lon="1.9753">
        <ele>120.6</ele>
        <time>2023-10-26T08:28:24Z</time>
      </trkpt>
      <trkpt lat="48.60363" lon="1.97538">
        <ele>120.2</ele>
        <time>2023-10-26T08:28:31Z</time>
      </trkpt>
      <trkpt lat="48.6037" lon="1.97546">
        <ele>119.7</ele>
        <time>2023-10-26T08:28:39Z</time>
      </trkpt>
      <trkpt lat="48.60378" lon="1.97553">
        <ele>119</ele>
        <time>2023-10-26T08:28:46Z</time>
      </trkpt>
      <trkpt lat="48.60387" lon="1.97561">
        <ele>118.2</ele>
        <time>2023-10-26T08:28:53Z</time>
      </trkpt>
      <trkpt lat="48.60395" lon="1.9757">
        <ele>117.5</ele>
        <time>2023-10-26T08:29:03Z</time>
      </trkpt>
      <trkpt lat="48.60402" lon="1.97578">
        <ele>117</ele>
        <time>2023-10-26T08:29:10Z</time>
      </trkpt>
      <trkpt lat="48.6041" lon="1.97586">
        <ele>116.5</ele>
        <time>2023-10-26T08:29:17Z</time>
      </trkpt>
      <trkpt lat="48.60418" lon="1.97597">
        <ele>116</ele>
        <time>2023-10-26T08:29:25Z</time>
      </trkpt>
      <trkpt lat="48.60424" lon="1.97606">
        <ele>115.7</ele>
        <time>2023-10-26T08:29:32Z</time>
      </trkpt>
      <trkpt lat="48.60432" lon="1.97615">
        <ele>115.5</ele>
        <time>2023-10-26T08:29:39Z</time>
      </trkpt>
      <trkpt lat="48.60439" lon="1.97624">
        <ele>115.3</ele>
        <time>2023-10-26T08:29:46Z</time>
      </trkpt>
      <trkpt lat="48.60447" lon="1.97634">
        <ele>114.8</ele>
        <time>2023-10-26T08:29:53Z</time>
      </trkpt>
      <trkpt lat="48.60456" lon="1.9764">
        <ele>114.1</ele>
        <time>2023-10-26T08:29:59Z</time>
      </trkpt>
      <trkpt lat="48.60465" lon="1.97648">
        <ele>113.6</ele>
        <time>2023-10-26T08:30:05Z</time>
      </trkpt>
      <trkpt lat="48.60473" lon="1.97657">
        <ele>113</ele>
        <time>2023-10-26T08:30:11Z</time>
      </trkpt>
      <trkpt lat="48.60481" lon="1.97664">
        <ele>112.7</ele>
        <time>2023-10-26T08:30:16Z</time>
      </trkpt>
      <trkpt lat="48.6049" lon="1.97671">
        <ele>112.4</ele>
        <time>2023-10-26T08:30:22Z</time>
      </trkpt>
      <trkpt lat="48.60498" lon="1.9768">
        <ele>112.1</ele>
        <time>2023-10-26T08:30:30Z</time>
      </trkpt>
      <trkpt lat="48.60506" lon="1.9769">
        <ele>111.7</ele>
        <time>2023-10-26T08:30:37Z</time>
      </trkpt>
      <trkpt lat="48.60514" lon="1.97697">
        <ele>111.5</ele>
        <time>2023-10-26T08:30:43Z</time>
      </trkpt>
      <trkpt lat="48.60523" lon="1.97704">
        <ele>111.2</ele>
        <time>2023-10-26T08:30:49Z</time>
      </trkpt>
      <trkpt lat="48.60531" lon="1.97711">
        <ele>110.8</ele>
        <time>2023-10-26T08:30:54Z</time>
      </trkpt>
      <trkpt lat="48.6053" lon="1.97726">
        <ele>110.9</ele>
        <time>2023-10-26T08:31:03Z</time>
      </trkpt>
      <trkpt lat="48.60524" lon="1.97739">
        <ele>111.1</ele>
        <time>2023-10-26T08:31:10Z</time>
      </trkpt>
      <trkpt lat="48.60518" lon="1.97749">
        <ele>111.4</ele>
        <time>2023-10-26T08:31:17Z</time>
      </trkpt>
      <trkpt lat="48.60512" lon="1.97761">
        <ele>111.6</ele>
        <time>2023-10-26T08:31:24Z</time>
      </trkpt>
      <trkpt lat="48.60505" lon="1.9777">
        <ele>111.8</ele>
        <time>2023-10-26T08:31:31Z</time>
      </trkpt>
      <trkpt lat="48.60499" lon="1.97782">
        <ele>111.9</ele>
        <time>2023-10-26T08:31:38Z</time>
      </trkpt>
      <trkpt lat="48.60493" lon="1.97792">
        <ele>111.6</ele>
        <time>2023-10-26T08:31:45Z</time>
      </trkpt>
      <trkpt lat="48.60487" lon="1.97806">
        <ele>111.4</ele>
        <time>2023-10-26T08:31:52Z</time>
      </trkpt>
      <trkpt lat="48.60482" lon="1.97817">
        <ele>111.2</ele>
        <time>2023-10-26T08:31:58Z</time>
      </trkpt>
      <trkpt lat="48.60475" lon="1.97828">
        <ele>111.1</ele>
        <time>2023-10-26T08:32:04Z</time>
      </trkpt>
      <trkpt lat="48.60469" lon="1.97841">
        <ele>111.1</ele>
        <time>2023-10-26T08:32:11Z</time>
      </trkpt>
      <trkpt lat="48.60463" lon="1.97853">
        <ele>111.3</ele>
        <time>2023-10-26T08:32:17Z</time>
      </trkpt>
      <trkpt lat="48.60458" lon="1.97867">
        <ele>111.3</ele>
        <time>2023-10-26T08:32:24Z</time>
      </trkpt>
      <trkpt lat="48.60453" lon="1.97878">
        <ele>111.1</ele>
        <time>2023-10-26T08:32:30Z</time>
      </trkpt>
      <trkpt lat="48.60448" lon="1.9789">
        <ele>110.8</ele>
        <time>2023-10-26T08:32:37Z</time>
      </trkpt>
      <trkpt lat="48.60444" lon="1.97902">
        <ele>110.5</ele>
        <time>2023-10-26T08:32:43Z</time>
      </trkpt>
      <trkpt lat="48.60437" lon="1.97913">
        <ele>110.4</ele>
        <time>2023-10-26T08:32:50Z</time>
      </trkpt>
      <trkpt lat="48.60431" lon="1.97926">
        <ele>110.3</ele>
        <time>2023-10-26T08:32:57Z</time>
      </trkpt>
      <trkpt lat="48.60426" lon="1.97939">
        <ele>110.1</ele>
        <time>2023-10-26T08:33:03Z</time>
      </trkpt>
      <trkpt lat="48.60421" lon="1.97951">
        <ele>110</ele>
        <time>2023-10-26T08:33:09Z</time>
      </trkpt>
      <trkpt lat="48.60415" lon="1.97962">
        <ele>110</ele>
        <time>2023-10-26T08:33:15Z</time>
      </trkpt>
      <trkpt lat="48.6041" lon="1.97974">
        <ele>109.9</ele>
        <time>2023-10-26T08:33:21Z</time>
      </trkpt>
      <trkpt lat="48.60404" lon="1.97985">
        <ele>109.6</ele>
        <time>2023-10-26T08:33:27Z</time>
      </trkpt>
      <trkpt lat="48.60398" lon="1.97995">
        <ele>109.2</ele>
        <time>2023-10-26T08:33:33Z</time>
      </trkpt>
      <trkpt lat="48.60393" lon="1.98007">
        <ele>109</ele>
        <time>2023-10-26T08:33:40Z</time>
      </trkpt>
      <trkpt lat="48.60389" lon="1.9802">
        <ele>109</ele>
        <time>2023-10-26T08:33:47Z</time>
      </trkpt>
      <trkpt lat="48.60385" lon="1.98034">
        <ele>108.8</ele>
        <time>2023-10-26T08:33:54Z</time>
      </trkpt>
      <trkpt lat="48.60381" lon="1.98047">
        <ele>108.3</ele>
        <time>2023-10-26T08:34:02Z</time>
      </trkpt>
      <trkpt lat="48.60377" lon="1.98062">
        <ele>107.8</ele>
        <time>2023-10-26T08:34:08Z</time>
      </trkpt>
      <trkpt lat="48.60372" lon="1.98073">
        <ele>107.4</ele>
        <time>2023-10-26T08:34:14Z</time>
      </trkpt>
      <trkpt lat="48.60366" lon="1.98086">
        <ele>106.9</ele>
        <time>2023-10-26T08:34:22Z</time>
      </trkpt>
      <trkpt lat="48.60359" lon="1.98096">
        <ele>106.5</ele>
        <time>2023-10-26T08:34:31Z</time>
      </trkpt>
      <trkpt lat="48.60353" lon="1.98106">
        <ele>106.2</ele>
        <time>2023-10-26T08:34:38Z</time>
      </trkpt>
      <trkpt lat="48.60346" lon="1.98117">
        <ele>106</ele>
        <time>2023-10-26T08:34:46Z</time>
      </trkpt>
      <trkpt lat="48.6034" lon="1.98128">
        <ele>106.3</ele>
        <time>2023-10-26T08:34:54Z</time>
      </trkpt>
      <trkpt lat="48.60342" lon="1.98141">
        <ele>106.4</ele>
        <time>2023-10-26T08:36:39Z</time>
      </trkpt>
      <trkpt lat="48.60347" lon="1.98154">
        <ele>106</ele>
        <time>2023-10-26T08:36:49Z</time>
      </trkpt>
      <trkpt lat="48.60355" lon="1.98161">
        <ele>105</ele>
        <time>2023-10-26T08:36:56Z</time>
      </trkpt>
      <trkpt lat="48.60362" lon="1.98169">
        <ele>104</ele>
        <time>2023-10-26T08:37:03Z</time>
      </trkpt>
      <trkpt lat="48.6037" lon="1.98177">
        <ele>103.6</ele>
        <time>2023-10-26T08:37:12Z</time>
      </trkpt>
      <trkpt lat="48.60375" lon="1.9819">
        <ele>103.1</ele>
        <time>2023-10-26T08:37:21Z</time>
      </trkpt>
      <trkpt lat="48.60383" lon="1.98198">
        <ele>102.5</ele>
        <time>2023-10-26T08:37:28Z</time>
      </trkpt>
      <trkpt lat="48.60389" lon="1.98208">
        <ele>102</ele>
        <time>2023-10-26T08:37:36Z</time>
      </trkpt>
      <trkpt lat="48.60399" lon="1.98213">
        <ele>102.1</ele>
        <time>2023-10-26T08:37:42Z</time>
      </trkpt>
      <trkpt lat="48.60407" lon="1.98221">
        <ele>102</ele>
        <time>2023-10-26T08:37:50Z</time>
      </trkpt>
      <trkpt lat="48.60414" lon="1.9823">
        <ele>102</ele>
        <time>2023-10-26T08:37:57Z</time>
      </trkpt>
      <trkpt lat="48.6042" lon="1.9824">
        <ele>102</ele>
        <time>2023-10-26T08:38:04Z</time>
      </trkpt>
      <trkpt lat="48.60428" lon="1.98247">
        <ele>102</ele>
        <time>2023-10-26T08:38:10Z</time>
      </trkpt>
      <trkpt lat="48.60437" lon="1.98254">
        <ele>101.9</ele>
        <time>2023-10-26T08:38:19Z</time>
      </trkpt>
      <trkpt lat="48.60446" lon="1.98262">
        <ele>101.6</ele>
        <time>2023-10-26T08:38:26Z</time>
      </trkpt>
      <trkpt lat="48.60453" lon="1.98271">
        <ele>101.5</ele>
        <time>2023-10-26T08:38:34Z</time>
      </trkpt>
      <trkpt lat="48.60462" lon="1.98279">
        <ele>101.6</ele>
        <time>2023-10-26T08:38:42Z</time>
      </trkpt>
      <trkpt lat="48.60472" lon="1.98284">
        <ele>101.8</ele>
        <time>2023-10-26T08:38:49Z</time>
      </trkpt>
      <trkpt lat="48.6048" lon="1.98292">
        <ele>101.6</ele>
        <time>2023-10-26T08:38:55Z</time>
      </trkpt>
      <trkpt lat="48.60488" lon="1.98299">
        <ele>101.7</ele>
        <time>2023-10-26T08:39:01Z</time>
      </trkpt>
      <trkpt lat="48.60496" lon="1.98307">
        <ele>101.8</ele>
        <time>2023-10-26T08:39:08Z</time>
      </trkpt>
      <trkpt lat="48.60505" lon="1.98316">
        <ele>101.8</ele>
        <time>2023-10-26T08:39:15Z</time>
      </trkpt>
      <trkpt lat="48.60512" lon="1.98325">
        <ele>101.7</ele>
        <time>2023-10-26T08:39:22Z</time>
      </trkpt>
      <trkpt lat="48.60521" lon="1.98332">
        <ele>101.8</ele>
        <time>2023-10-26T08:39:30Z</time>
      </trkpt>
      <trkpt lat="48.60528" lon="1.98342">
        <ele>102</ele>
        <time>2023-10-26T08:39:39Z</time>
      </trkpt>
      <trkpt lat="48.60524" lon="1.98355">
        <ele>101.9</ele>
        <time>2023-10-26T08:39:51Z</time>
      </trkpt>
      <trkpt lat="48.60516" lon="1.98362">
        <ele>101.5</ele>
        <time>2023-10-26T08:40:00Z</time>
      </trkpt>
      <trkpt lat="48.60507" lon="1.98363">
        <ele>101.2</ele>
        <time>2023-10-26T08:40:08Z</time>
      </trkpt>
      <trkpt lat="48.60497" lon="1.98364">
        <ele>100.8</ele>
        <time>2023-10-26T08:40:16Z</time>
      </trkpt>
      <trkpt lat="48.60488" lon="1.98366">
        <ele>100.5</ele>
        <time>2023-10-26T08:40:25Z</time>
      </trkpt>
      <trkpt lat="48.60477" lon="1.98368">
        <ele>100.1</ele>
        <time>2023-10-26T08:40:33Z</time>
      </trkpt>
      <trkpt lat="48.60468" lon="1.98369">
        <ele>100</ele>
        <time>2023-10-26T08:40:41Z</time>
      </trkpt>
      <trkpt lat="48.60458" lon="1.98366">
        <ele>100</ele>
        <time>2023-10-26T08:40:51Z</time>
      </trkpt>
      <trkpt lat="48.6045" lon="1.98371">
        <ele>100</ele>
        <time>2023-10-26T08:41:08Z</time>
      </trkpt>
      <trkpt lat="48.60442" lon="1.98363">
        <ele>100.1</ele>
        <time>2023-10-26T08:41:27Z</time>
      </trkpt>
      <trkpt lat="48.60436" lon="1.98373">
        <ele>100.3</ele>
        <time>2023-10-26T08:41:38Z</time>
      </trkpt>
      <trkpt lat="48.60427" lon="1.98378">
        <ele>100.6</ele>
        <time>2023-10-26T08:41:47Z</time>
      </trkpt>
      <trkpt lat="48.60417" lon="1.98384">
        <ele>101</ele>
        <time>2023-10-26T08:41:55Z</time>
      </trkpt>
      <trkpt lat="48.60408" lon="1.9839">
        <ele>101.3</ele>
        <time>2023-10-26T08:42:03Z</time>
      </trkpt>
      <trkpt lat="48.60399" lon="1.98396">
        <ele>101.5</ele>
        <time>2023-10-26T08:42:09Z</time>
      </trkpt>
      <trkpt lat="48.6039" lon="1.98398">
        <ele>102</ele>
        <time>2023-10-26T08:42:17Z</time>
      </trkpt>
      <trkpt lat="48.6038" lon="1.98401">
        <ele>102.7</ele>
        <time>2023-10-26T08:42:25Z</time>
      </trkpt>
      <trkpt lat="48.60371" lon="1.98406">
        <ele>103.3</ele>
        <time>2023-10-26T08:42:32Z</time>
      </trkpt>
      <trkpt lat="48.60362" lon="1.98413">
        <ele>104</ele>
        <time>2023-10-26T08:42:41Z</time>
      </trkpt>
      <trkpt lat="48.60353" lon="1.98418">
        <ele>104.6</ele>
        <time>2023-10-26T08:42:49Z</time>
      </trkpt>
      <trkpt lat="48.60345" lon="1.98426">
        <ele>105.2</ele>
        <time>2023-10-26T08:42:58Z</time>
      </trkpt>
      <trkpt lat="48.60337" lon="1.98435">
        <ele>105.8</ele>
        <time>2023-10-26T08:43:08Z</time>
      </trkpt>
      <trkpt lat="48.60329" lon="1.98445">
        <ele>106.1</ele>
        <time>2023-10-26T08:43:16Z</time>
      </trkpt>
      <trkpt lat="48.60321" lon="1.98451">
        <ele>106.2</ele>
        <time>2023-10-26T08:43:25Z</time>
      </trkpt>
      <trkpt lat="48.60314" lon="1.98458">
        <ele>106.2</ele>
        <time>2023-10-26T08:43:33Z</time>
      </trkpt>
      <trkpt lat="48.60307" lon="1.98469">
        <ele>106.1</ele>
        <time>2023-10-26T08:43:41Z</time>
      </trkpt>
      <trkpt lat="48.60299" lon="1.98478">
        <ele>105.8</ele>
        <time>2023-10-26T08:43:48Z</time>
      </trkpt>
      <trkpt lat="48.60292" lon="1.98488">
        <ele>105.4</ele>
        <time>2023-10-26T08:43:55Z</time>
      </trkpt>
      <trkpt lat="48.60285" lon="1.98498">
        <ele>105.1</ele>
        <time>2023-10-26T08:44:02Z</time>
      </trkpt>
      <trkpt lat="48.60279" lon="1.98508">
        <ele>104.7</ele>
        <time>2023-10-26T08:44:10Z</time>
      </trkpt>
      <trkpt lat="48.60271" lon="1.98518">
        <ele>104.5</ele>
        <time>2023-10-26T08:44:19Z</time>
      </trkpt>
      <trkpt lat="48.60266" lon="1.9853">
        <ele>104.4</ele>
        <time>2023-10-26T08:44:27Z</time>
      </trkpt>
      <trkpt lat="48.60259" lon="1.98539">
        <ele>104.4</ele>
        <time>2023-10-26T08:44:35Z</time>
      </trkpt>
      <trkpt lat="48.60252" lon="1.98548">
        <ele>104.2</ele>
        <time>2023-10-26T08:44:44Z</time>
      </trkpt>
      <trkpt lat="48.60243" lon="1.98551">
        <ele>104.4</ele>
        <time>2023-10-26T08:44:55Z</time>
      </trkpt>
      <trkpt lat="48.60239" lon="1.98563">
        <ele>104.4</ele>
        <time>2023-10-26T08:45:02Z</time>
      </trkpt>
      <trkpt lat="48.60232" lon="1.98574">
        <ele>104.6</ele>
        <time>2023-10-26T08:45:13Z</time>
      </trkpt>
      <trkpt lat="48.60224" lon="1.98583">
        <ele>105</ele>
        <time>2023-10-26T08:45:19Z</time>
      </trkpt>
      <trkpt lat="48.60216" lon="1.98594">
        <ele>105.3</ele>
        <time>2023-10-26T08:45:24Z</time>
      </trkpt>
      <trkpt lat="48.60211" lon="1.98606">
        <ele>105.7</ele>
        <time>2023-10-26T08:45:32Z</time>
      </trkpt>
      <trkpt lat="48.60202" lon="1.9861">
        <ele>106.4</ele>
        <time>2023-10-26T08:45:38Z</time>
      </trkpt>
      <trkpt lat="48.60193" lon="1.98616">
        <ele>107</ele>
        <time>2023-10-26T08:45:45Z</time>
      </trkpt>
      <trkpt lat="48.60185" lon="1.98624">
        <ele>107.3</ele>
        <time>2023-10-26T08:45:52Z</time>
      </trkpt>
      <trkpt lat="48.60176" lon="1.98631">
        <ele>107.7</ele>
        <time>2023-10-26T08:45:59Z</time>
      </trkpt>
      <trkpt lat="48.60169" lon="1.9864">
        <ele>107.9</ele>
        <time>2023-10-26T08:46:05Z</time>
      </trkpt>
      <trkpt lat="48.60161" lon="1.98649">
        <ele>108.2</ele>
        <time>2023-10-26T08:46:12Z</time>
      </trkpt>
      <trkpt lat="48.60153" lon="1.98658">
        <ele>108.5</ele>
        <time>2023-10-26T08:46:20Z</time>
      </trkpt>
      <trkpt lat="48.60145" lon="1.98665">
        <ele>108.8</ele>
        <time>2023-10-26T08:46:28Z</time>
      </trkpt>
      <trkpt lat="48.60137" lon="1.98673">
        <ele>108.8</ele>
        <time>2023-10-26T08:46:36Z</time>
      </trkpt>
      <trkpt lat="48.60128" lon="1.98681">
        <ele>108.9</ele>
        <time>2023-10-26T08:46:44Z</time>
      </trkpt>
      <trkpt lat="48.6012" lon="1.98691">
        <ele>108.8</ele>
        <time>2023-10-26T08:46:52Z</time>
      </trkpt>
      <trkpt lat="48.60112" lon="1.98698">
        <ele>108.9</ele>
        <time>2023-10-26T08:47:00Z</time>
      </trkpt>
      <trkpt lat="48.60103" lon="1.98704">
        <ele>108.7</ele>
        <time>2023-10-26T08:47:09Z</time>
      </trkpt>
      <trkpt lat="48.60094" lon="1.98708">
        <ele>108.5</ele>
        <time>2023-10-26T08:47:16Z</time>
      </trkpt>
      <trkpt lat="48.60085" lon="1.98712">
        <ele>108.4</ele>
        <time>2023-10-26T08:47:23Z</time>
      </trkpt>
      <trkpt lat="48.60075" lon="1.98713">
        <ele>108</ele>
        <time>2023-10-26T08:47:31Z</time>
      </trkpt>
      <trkpt lat="48.60067" lon="1.98722">
        <ele>107.4</ele>
        <time>2023-10-26T08:47:37Z</time>
      </trkpt>
      <trkpt lat="48.60059" lon="1.98729">
        <ele>107.1</ele>
        <time>2023-10-26T08:47:43Z</time>
      </trkpt>
      <trkpt lat="48.60049" lon="1.98732">
        <ele>106.9</ele>
        <time>2023-10-26T08:47:52Z</time>
      </trkpt>
      <trkpt lat="48.60039" lon="1.98734">
        <ele>106.8</ele>
        <time>2023-10-26T08:48:00Z</time>
      </trkpt>
      <trkpt lat="48.6003" lon="1.98735">
        <ele>106.6</ele>
        <time>2023-10-26T08:48:08Z</time>
      </trkpt>
      <trkpt lat="48.60021" lon="1.98741">
        <ele>106.1</ele>
        <time>2023-10-26T08:48:14Z</time>
      </trkpt>
      <trkpt lat="48.60012" lon="1.98745">
        <ele>105.6</ele>
        <time>2023-10-26T08:48:20Z</time>
      </trkpt>
      <trkpt lat="48.60003" lon="1.98748">
        <ele>105.2</ele>
        <time>2023-10-26T08:48:25Z</time>
      </trkpt>
      <trkpt lat="48.59994" lon="1.98751">
        <ele>105.2</ele>
        <time>2023-10-26T08:48:31Z</time>
      </trkpt>
      <trkpt lat="48.59984" lon="1.98754">
        <ele>105.5</ele>
        <time>2023-10-26T08:48:38Z</time>
      </trkpt>
      <trkpt lat="48.59975" lon="1.98755">
        <ele>105.7</ele>
        <time>2023-10-26T08:48:47Z</time>
      </trkpt>
      <trkpt lat="48.59967" lon="1.98758">
        <ele>105.8</ele>
        <time>2023-10-26T08:48:54Z</time>
      </trkpt>
      <trkpt lat="48.59957" lon="1.98758">
        <ele>105.9</ele>
        <time>2023-10-26T08:49:02Z</time>
      </trkpt>
      <trkpt lat="48.59948" lon="1.98764">
        <ele>105.9</ele>
        <time>2023-10-26T08:49:09Z</time>
      </trkpt>
      <trkpt lat="48.59939" lon="1.98769">
        <ele>106.2</ele>
        <time>2023-10-26T08:49:15Z</time>
      </trkpt>
      <trkpt lat="48.59931" lon="1.98776">
        <ele>106.5</ele>
        <time>2023-10-26T08:49:30Z</time>
      </trkpt>
      <trkpt lat="48.59919" lon="1.98779">
        <ele>106.9</ele>
        <time>2023-10-26T08:49:33Z</time>
      </trkpt>
      <trkpt lat="48.59909" lon="1.98781">
        <ele>107.7</ele>
        <time>2023-10-26T08:49:37Z</time>
      </trkpt>
      <trkpt lat="48.599" lon="1.98782">
        <ele>108.6</ele>
        <time>2023-10-26T08:49:43Z</time>
      </trkpt>
      <trkpt lat="48.5989" lon="1.98784">
        <ele>109.7</ele>
        <time>2023-10-26T08:49:49Z</time>
      </trkpt>
      <trkpt lat="48.5988" lon="1.98786">
        <ele>110.6</ele>
        <time>2023-10-26T08:49:56Z</time>
      </trkpt>
      <trkpt lat="48.5987" lon="1.98787">
        <ele>111.4</ele>
        <time>2023-10-26T08:50:04Z</time>
      </trkpt>
      <trkpt lat="48.59862" lon="1.98784">
        <ele>112.5</ele>
        <time>2023-10-26T08:50:12Z</time>
      </trkpt>
      <trkpt lat="48.59852" lon="1.98787">
        <ele>112.9</ele>
        <time>2023-10-26T08:50:19Z</time>
      </trkpt>
      <trkpt lat="48.59842" lon="1.98789">
        <ele>113.3</ele>
        <time>2023-10-26T08:50:27Z</time>
      </trkpt>
      <trkpt lat="48.59832" lon="1.98792">
        <ele>113.5</ele>
        <time>2023-10-26T08:50:35Z</time>
      </trkpt>
      <trkpt lat="48.59822" lon="1.98792">
        <ele>113.7</ele>
        <time>2023-10-26T08:50:43Z</time>
      </trkpt>
      <trkpt lat="48.59812" lon="1.98793">
        <ele>113.8</ele>
        <time>2023-10-26T08:50:51Z</time>
      </trkpt>
      <trkpt lat="48.59802" lon="1.98793">
        <ele>114.1</ele>
        <time>2023-10-26T08:50:59Z</time>
      </trkpt>
      <trkpt lat="48.59792" lon="1.98794">
        <ele>114.3</ele>
        <time>2023-10-26T08:51:07Z</time>
      </trkpt>
      <trkpt lat="48.59783" lon="1.98793">
        <ele>114.7</ele>
        <time>2023-10-26T08:51:15Z</time>
      </trkpt>
      <trkpt lat="48.59774" lon="1.98794">
        <ele>114.9</ele>
        <time>2023-10-26T08:51:22Z</time>
      </trkpt>
      <trkpt lat="48.59764" lon="1.98796">
        <ele>115</ele>
        <time>2023-10-26T08:51:30Z</time>
      </trkpt>
      <trkpt lat="48.59755" lon="1.98797">
        <ele>115.2</ele>
        <time>2023-10-26T08:51:35Z</time>
      </trkpt>
      <trkpt lat="48.59746" lon="1.98795">
        <ele>115.5</ele>
        <time>2023-10-26T08:51:42Z</time>
      </trkpt>
      <trkpt lat="48.59737" lon="1.98793">
        <ele>115.9</ele>
        <time>2023-10-26T08:51:50Z</time>
      </trkpt>
      <trkpt lat="48.59727" lon="1.98795">
        <ele>116.2</ele>
        <time>2023-10-26T08:51:57Z</time>
      </trkpt>
      <trkpt lat="48.59717" lon="1.98795">
        <ele>116.7</ele>
        <time>2023-10-26T08:52:04Z</time>
      </trkpt>
      <trkpt lat="48.59708" lon="1.98798">
        <ele>117.2</ele>
        <time>2023-10-26T08:52:21Z</time>
      </trkpt>
      <trkpt lat="48.59698" lon="1.98795">
        <ele>117.8</ele>
        <time>2023-10-26T08:52:25Z</time>
      </trkpt>
      <trkpt lat="48.59688" lon="1.98797">
        <ele>118.4</ele>
        <time>2023-10-26T08:52:33Z</time>
      </trkpt>
      <trkpt lat="48.59679" lon="1.98793">
        <ele>118.9</ele>
        <time>2023-10-26T08:52:41Z</time>
      </trkpt>
      <trkpt lat="48.5967" lon="1.98791">
        <ele>119.3</ele>
        <time>2023-10-26T08:52:48Z</time>
      </trkpt>
      <trkpt lat="48.5966" lon="1.98791">
        <ele>120</ele>
        <time>2023-10-26T08:52:54Z</time>
      </trkpt>
      <trkpt lat="48.5965" lon="1.98793">
        <ele>120.7</ele>
        <time>2023-10-26T08:53:02Z</time>
      </trkpt>
      <trkpt lat="48.59641" lon="1.98793">
        <ele>121.4</ele>
        <time>2023-10-26T08:53:09Z</time>
      </trkpt>
      <trkpt lat="48.59632" lon="1.98794">
        <ele>122.1</ele>
        <time>2023-10-26T08:53:18Z</time>
      </trkpt>
      <trkpt lat="48.59623" lon="1.98793">
        <ele>122.7</ele>
        <time>2023-10-26T08:53:30Z</time>
      </trkpt>
      <trkpt lat="48.59613" lon="1.98798">
        <ele>123.6</ele>
        <time>2023-10-26T08:53:39Z</time>
      </trkpt>
      <trkpt lat="48.59604" lon="1.98798">
        <ele>123.9</ele>
        <time>2023-10-26T08:53:48Z</time>
      </trkpt>
      <trkpt lat="48.59594" lon="1.98799">
        <ele>124.2</ele>
        <time>2023-10-26T08:53:56Z</time>
      </trkpt>
      <trkpt lat="48.59585" lon="1.98799">
        <ele>124.5</ele>
        <time>2023-10-26T08:54:05Z</time>
      </trkpt>
      <trkpt lat="48.59575" lon="1.98799">
        <ele>124.3</ele>
        <time>2023-10-26T08:54:15Z</time>
      </trkpt>
      <trkpt lat="48.59566" lon="1.98801">
        <ele>124.1</ele>
        <time>2023-10-26T08:54:24Z</time>
      </trkpt>
      <trkpt lat="48.59557" lon="1.98798">
        <ele>123.8</ele>
        <time>2023-10-26T08:57:39Z</time>
      </trkpt>
      <trkpt lat="48.5955" lon="1.98787">
        <ele>123.3</ele>
        <time>2023-10-26T08:57:50Z</time>
      </trkpt>
      <trkpt lat="48.59553" lon="1.98773">
        <ele>123</ele>
        <time>2023-10-26T08:58:00Z</time>
      </trkpt>
      <trkpt lat="48.59562" lon="1.98768">
        <ele>123</ele>
        <time>2023-10-26T08:58:08Z</time>
      </trkpt>
      <trkpt lat="48.59571" lon="1.98767">
        <ele>123</ele>
        <time>2023-10-26T08:58:15Z</time>
      </trkpt>
      <trkpt lat="48.59579" lon="1.98761">
        <ele>123</ele>
        <time>2023-10-26T08:58:22Z</time>
      </trkpt>
      <trkpt lat="48.59588" lon="1.98754">
        <ele>122.8</ele>
        <time>2023-10-26T08:58:29Z</time>
      </trkpt>
      <trkpt lat="48.59596" lon="1.98744">
        <ele>122.7</ele>
        <time>2023-10-26T08:58:36Z</time>
      </trkpt>
      <trkpt lat="48.59604" lon="1.98736">
        <ele>122.8</ele>
        <time>2023-10-26T08:58:43Z</time>
      </trkpt>
      <trkpt lat="48.59609" lon="1.98724">
        <ele>123</ele>
        <time>2023-10-26T08:58:51Z</time>
      </trkpt>
      <trkpt lat="48.59615" lon="1.98712">
        <ele>123.7</ele>
        <time>2023-10-26T08:59:00Z</time>
      </trkpt>
      <trkpt lat="48.59622" lon="1.98704">
        <ele>124.1</ele>
        <time>2023-10-26T08:59:07Z</time>
      </trkpt>
      <trkpt lat="48.5963" lon="1.98695">
        <ele>124.3</ele>
        <time>2023-10-26T08:59:15Z</time>
      </trkpt>
      <trkpt lat="48.59637" lon="1.98687">
        <ele>124.6</ele>
        <time>2023-10-26T08:59:23Z</time>
      </trkpt>
      <trkpt lat="48.59646" lon="1.9869">
        <ele>124.4</ele>
        <time>2023-10-26T08:59:32Z</time>
      </trkpt>
      <trkpt lat="48.59655" lon="1.98694">
        <ele>124</ele>
        <time>2023-10-26T08:59:39Z</time>
      </trkpt>
      <trkpt lat="48.59665" lon="1.98696">
        <ele>123.9</ele>
        <time>2023-10-26T08:59:48Z</time>
      </trkpt>
      <trkpt lat="48.59675" lon="1.98693">
        <ele>124.5</ele>
        <time>2023-10-26T08:59:55Z</time>
      </trkpt>
      <trkpt lat="48.59683" lon="1.98686">
        <ele>125.5</ele>
        <time>2023-10-26T09:00:03Z</time>
      </trkpt>
      <trkpt lat="48.59686" lon="1.98673">
        <ele>127.1</ele>
        <time>2023-10-26T09:00:10Z</time>
      </trkpt>
      <trkpt lat="48.59692" lon="1.98662">
        <ele>128.8</ele>
        <time>2023-10-26T09:00:18Z</time>
      </trkpt>
      <trkpt lat="48.59698" lon="1.9865">
        <ele>131.1</ele>
        <time>2023-10-26T09:00:27Z</time>
      </trkpt>
      <trkpt lat="48.59699" lon="1.98636">
        <ele>133.6</ele>
        <time>2023-10-26T09:00:35Z</time>
      </trkpt>
      <trkpt lat="48.59698" lon="1.98622">
        <ele>135.6</ele>
        <time>2023-10-26T09:01:00Z</time>
      </trkpt>
      <trkpt lat="48.59696" lon="1.98607">
        <ele>137.6</ele>
        <time>2023-10-26T09:01:07Z</time>
      </trkpt>
      <trkpt lat="48.59694" lon="1.98593">
        <ele>139.5</ele>
        <time>2023-10-26T09:01:14Z</time>
      </trkpt>
      <trkpt lat="48.59692" lon="1.98578">
        <ele>141.4</ele>
        <time>2023-10-26T09:01:22Z</time>
      </trkpt>
      <trkpt lat="48.59693" lon="1.98565">
        <ele>142.9</ele>
        <time>2023-10-26T09:01:30Z</time>
      </trkpt>
      <trkpt lat="48.59692" lon="1.9855">
        <ele>144.2</ele>
        <time>2023-10-26T09:01:40Z</time>
      </trkpt>
      <trkpt lat="48.59693" lon="1.98537">
        <ele>145.2</ele>
        <time>2023-10-26T09:01:50Z</time>
      </trkpt>
      <trkpt lat="48.59693" lon="1.98523">
        <ele>146.1</ele>
        <time>2023-10-26T09:02:07Z</time>
      </trkpt>
      <trkpt lat="48.59692" lon="1.98509">
        <ele>146.5</ele>
        <time>2023-10-26T09:02:15Z</time>
      </trkpt>
      <trkpt lat="48.59691" lon="1.98495">
        <ele>146.8</ele>
        <time>2023-10-26T09:02:23Z</time>
      </trkpt>
      <trkpt lat="48.5969" lon="1.9848">
        <ele>146.8</ele>
        <time>2023-10-26T09:02:33Z</time>
      </trkpt>
      <trkpt lat="48.59691" lon="1.98466">
        <ele>146.9</ele>
        <time>2023-10-26T09:02:42Z</time>
      </trkpt>
      <trkpt lat="48.59692" lon="1.98451">
        <ele>147</ele>
        <time>2023-10-26T09:02:52Z</time>
      </trkpt>
      <trkpt lat="48.59691" lon="1.98437">
        <ele>146.8</ele>
        <time>2023-10-26T09:03:02Z</time>
      </trkpt>
      <trkpt lat="48.59691" lon="1.98422">
        <ele>146.3</ele>
        <time>2023-10-26T09:03:11Z</time>
      </trkpt>
      <trkpt lat="48.5969" lon="1.98407">
        <ele>145.6</ele>
        <time>2023-10-26T09:03:19Z</time>
      </trkpt>
      <trkpt lat="48.59688" lon="1.98394">
        <ele>145</ele>
        <time>2023-10-26T09:03:28Z</time>
      </trkpt>
      <trkpt lat="48.59683" lon="1.98381">
        <ele>144.5</ele>
        <time>2023-10-26T09:03:37Z</time>
      </trkpt>
      <trkpt lat="48.59678" lon="1.9837">
        <ele>144.1</ele>
        <time>2023-10-26T09:03:47Z</time>
      </trkpt>
      <trkpt lat="48.5967" lon="1.98362">
        <ele>144.5</ele>
        <time>2023-10-26T09:03:55Z</time>
      </trkpt>
      <trkpt lat="48.59662" lon="1.98354">
        <ele>144.8</ele>
        <time>2023-10-26T09:04:02Z</time>
      </trkpt>
      <trkpt lat="48.59656" lon="1.98342">
        <ele>144.6</ele>
        <time>2023-10-26T09:04:10Z</time>
      </trkpt>
      <trkpt lat="48.59653" lon="1.98328">
        <ele>144.3</ele>
        <time>2023-10-26T09:04:19Z</time>
      </trkpt>
      <trkpt lat="48.5965" lon="1.98314">
        <ele>144.3</ele>
        <time>2023-10-26T09:04:28Z</time>
      </trkpt>
      <trkpt lat="48.59646" lon="1.98301">
        <ele>144.7</ele>
        <time>2023-10-26T09:04:36Z</time>
      </trkpt>
      <trkpt lat="48.59639" lon="1.9829">
        <ele>145.5</ele>
        <time>2023-10-26T09:04:45Z</time>
      </trkpt>
      <trkpt lat="48.59632" lon="1.9828">
        <ele>145.8</ele>
        <time>2023-10-26T09:04:53Z</time>
      </trkpt>
      <trkpt lat="48.59629" lon="1.98267">
        <ele>146.5</ele>
        <time>2023-10-26T09:05:02Z</time>
      </trkpt>
      <trkpt lat="48.59622" lon="1.98256">
        <ele>147.6</ele>
        <time>2023-10-26T09:05:29Z</time>
      </trkpt>
      <trkpt lat="48.59616" lon="1.98247">
        <ele>148.6</ele>
        <time>2023-10-26T09:05:34Z</time>
      </trkpt>
      <trkpt lat="48.59609" lon="1.98236">
        <ele>149.6</ele>
        <time>2023-10-26T09:05:40Z</time>
      </trkpt>
      <trkpt lat="48.59601" lon="1.98226">
        <ele>150.2</ele>
        <time>2023-10-26T09:05:48Z</time>
      </trkpt>
      <trkpt lat="48.59594" lon="1.98218">
        <ele>150.8</ele>
        <time>2023-10-26T09:05:55Z</time>
      </trkpt>
      <trkpt lat="48.59587" lon="1.98208">
        <ele>151.4</ele>
        <time>2023-10-26T09:06:03Z</time>
      </trkpt>
      <trkpt lat="48.5958" lon="1.982">
        <ele>151.8</ele>
        <time>2023-10-26T09:06:11Z</time>
      </trkpt>
      <trkpt lat="48.59572" lon="1.98191">
        <ele>152.1</ele>
        <time>2023-10-26T09:06:18Z</time>
      </trkpt>
      <trkpt lat="48.59565" lon="1.9818">
        <ele>152.5</ele>
        <time>2023-10-26T09:06:26Z</time>
      </trkpt>
      <trkpt lat="48.5956" lon="1.98167">
        <ele>153</ele>
        <time>2023-10-26T09:06:35Z</time>
      </trkpt>
      <trkpt lat="48.59554" lon="1.98157">
        <ele>153.3</ele>
        <time>2023-10-26T09:06:49Z</time>
      </trkpt>
      <trkpt lat="48.59548" lon="1.98145">
        <ele>153.4</ele>
        <time>2023-10-26T09:06:56Z</time>
      </trkpt>
      <trkpt lat="48.59542" lon="1.98134">
        <ele>153.8</ele>
        <time>2023-10-26T09:07:03Z</time>
      </trkpt>
      <trkpt lat="48.59537" lon="1.98121">
        <ele>154.4</ele>
        <time>2023-10-26T09:07:09Z</time>
      </trkpt>
      <trkpt lat="48.59532" lon="1.98108">
        <ele>155.2</ele>
        <time>2023-10-26T09:07:16Z</time>
      </trkpt>
      <trkpt lat="48.59533" lon="1.98094">
        <ele>156.1</ele>
        <time>2023-10-26T09:07:24Z</time>
      </trkpt>
      <trkpt lat="48.59529" lon="1.9808">
        <ele>156.9</ele>
        <time>2023-10-26T09:07:31Z</time>
      </trkpt>
      <trkpt lat="48.59529" lon="1.98065">
        <ele>156.9</ele>
        <time>2023-10-26T09:07:39Z</time>
      </trkpt>
      <trkpt lat="48.59527" lon="1.98051">
        <ele>157</ele>
        <time>2023-10-26T09:07:47Z</time>
      </trkpt>
      <trkpt lat="48.59525" lon="1.98037">
        <ele>157.1</ele>
        <time>2023-10-26T09:07:56Z</time>
      </trkpt>
      <trkpt lat="48.59524" lon="1.98023">
        <ele>157.3</ele>
        <time>2023-10-26T09:08:04Z</time>
      </trkpt>
      <trkpt lat="48.5952" lon="1.98011">
        <ele>157.7</ele>
        <time>2023-10-26T09:08:13Z</time>
      </trkpt>
      <trkpt lat="48.59516" lon="1.97997">
        <ele>158</ele>
        <time>2023-10-26T09:08:34Z</time>
      </trkpt>
      <trkpt lat="48.59509" lon="1.97989">
        <ele>158.3</ele>
        <time>2023-10-26T09:08:43Z</time>
      </trkpt>
      <trkpt lat="48.59499" lon="1.97989">
        <ele>158.4</ele>
        <time>2023-10-26T09:08:52Z</time>
      </trkpt>
      <trkpt lat="48.5949" lon="1.97996">
        <ele>158.5</ele>
        <time>2023-10-26T09:09:00Z</time>
      </trkpt>
      <trkpt lat="48.59482" lon="1.98005">
        <ele>158.7</ele>
        <time>2023-10-26T09:09:08Z</time>
      </trkpt>
      <trkpt lat="48.59475" lon="1.98015">
        <ele>158.9</ele>
        <time>2023-10-26T09:09:16Z</time>
      </trkpt>
      <trkpt lat="48.59468" lon="1.98024">
        <ele>159</ele>
        <time>2023-10-26T09:09:24Z</time>
      </trkpt>
      <trkpt lat="48.59461" lon="1.98034">
        <ele>158.8</ele>
        <time>2023-10-26T09:09:32Z</time>
      </trkpt>
      <trkpt lat="48.59455" lon="1.98045">
        <ele>158.4</ele>
        <time>2023-10-26T09:09:39Z</time>
      </trkpt>
      <trkpt lat="48.59448" lon="1.98055">
        <ele>158</ele>
        <time>2023-10-26T09:09:47Z</time>
      </trkpt>
      <trkpt lat="48.5944" lon="1.98065">
        <ele>157.6</ele>
        <time>2023-10-26T09:09:56Z</time>
      </trkpt>
      <trkpt lat="48.59433" lon="1.98075">
        <ele>157</ele>
        <time>2023-10-26T09:10:03Z</time>
      </trkpt>
      <trkpt lat="48.59424" lon="1.98082">
        <ele>156.3</ele>
        <time>2023-10-26T09:10:11Z</time>
      </trkpt>
      <trkpt lat="48.59414" lon="1.98083">
        <ele>156</ele>
        <time>2023-10-26T09:10:21Z</time>
      </trkpt>
      <trkpt lat="48.59404" lon="1.9808">
        <ele>156.2</ele>
        <time>2023-10-26T09:10:30Z</time>
      </trkpt>
      <trkpt lat="48.59396" lon="1.98074">
        <ele>156.4</ele>
        <time>2023-10-26T09:10:40Z</time>
      </trkpt>
      <trkpt lat="48.59387" lon="1.98068">
        <ele>156.4</ele>
        <time>2023-10-26T09:10:50Z</time>
      </trkpt>
      <trkpt lat="48.59378" lon="1.9806">
        <ele>156.3</ele>
        <time>2023-10-26T09:10:58Z</time>
      </trkpt>
      <trkpt lat="48.5937" lon="1.98052">
        <ele>156.6</ele>
        <time>2023-10-26T09:11:07Z</time>
      </trkpt>
      <trkpt lat="48.59363" lon="1.98045">
        <ele>156.8</ele>
        <time>2023-10-26T09:11:15Z</time>
      </trkpt>
      <trkpt lat="48.59357" lon="1.98033">
        <ele>157.2</ele>
        <time>2023-10-26T09:11:25Z</time>
      </trkpt>
      <trkpt lat="48.59356" lon="1.98018">
        <ele>157.4</ele>
        <time>2023-10-26T09:11:35Z</time>
      </trkpt>
      <trkpt lat="48.59356" lon="1.98003">
        <ele>157.5</ele>
        <time>2023-10-26T09:11:44Z</time>
      </trkpt>
      <trkpt lat="48.59362" lon="1.97991">
        <ele>158</ele>
        <time>2023-10-26T09:11:55Z</time>
      </trkpt>
      <trkpt lat="48.59365" lon="1.97978">
        <ele>158.1</ele>
        <time>2023-10-26T09:12:04Z</time>
      </trkpt>
      <trkpt lat="48.59367" lon="1.97963">
        <ele>157.9</ele>
        <time>2023-10-26T09:12:12Z</time>
      </trkpt>
      <trkpt lat="48.59368" lon="1.97949">
        <ele>157.6</ele>
        <time>2023-10-26T09:12:20Z</time>
      </trkpt>
      <trkpt lat="48.59368" lon="1.97935">
        <ele>157.3</ele>
        <time>2023-10-26T09:12:29Z</time>
      </trkpt>
      <trkpt lat="48.5937" lon="1.97921">
        <ele>157</ele>
        <time>2023-10-26T09:12:37Z</time>
      </trkpt>
      <trkpt lat="48.59369" lon="1.97907">
        <ele>157.1</ele>
        <time>2023-10-26T09:12:45Z</time>
      </trkpt>
      <trkpt lat="48.59366" lon="1.97894">
        <ele>157.2</ele>
        <time>2023-10-26T09:12:53Z</time>
      </trkpt>
      <trkpt lat="48.59362" lon="1.97879">
        <ele>157</ele>
        <time>2023-10-26T09:13:00Z</time>
      </trkpt>
      <trkpt lat="48.59358" lon="1.97866">
        <ele>156.5</ele>
        <time>2023-10-26T09:13:07Z</time>
      </trkpt>
      <trkpt lat="48.59354" lon="1.97853">
        <ele>156.1</ele>
        <time>2023-10-26T09:13:15Z</time>
      </trkpt>
      <trkpt lat="48.59349" lon="1.9784">
        <ele>155.9</ele>
        <time>2023-10-26T09:13:22Z</time>
      </trkpt>
      <trkpt lat="48.59345" lon="1.97828">
        <ele>155.9</ele>
        <time>2023-10-26T09:13:28Z</time>
      </trkpt>
      <trkpt lat="48.5934" lon="1.97814">
        <ele>156</ele>
        <time>2023-10-26T09:13:35Z</time>
      </trkpt>
      <trkpt lat="48.59338" lon="1.97801">
        <ele>156.2</ele>
        <time>2023-10-26T09:13:42Z</time>
      </trkpt>
      <trkpt lat="48.59337" lon="1.97786">
        <ele>156.1</ele>
        <time>2023-10-26T09:13:50Z</time>
      </trkpt>
      <trkpt lat="48.59338" lon="1.97772">
        <ele>156.2</ele>
        <time>2023-10-26T09:13:58Z</time>
      </trkpt>
      <trkpt lat="48.59343" lon="1.97758">
        <ele>156.3</ele>
        <time>2023-10-26T09:14:08Z</time>
      </trkpt>
      <trkpt lat="48.59348" lon="1.97745">
        <ele>156.5</ele>
        <time>2023-10-26T09:14:19Z</time>
      </trkpt>
      <trkpt lat="48.59354" lon="1.97735">
        <ele>156.7</ele>
        <time>2023-10-26T09:14:28Z</time>
      </trkpt>
      <trkpt lat="48.5936" lon="1.97725">
        <ele>157</ele>
        <time>2023-10-26T09:14:36Z</time>
      </trkpt>
      <trkpt lat="48.59368" lon="1.97717">
        <ele>156.8</ele>
        <time>2023-10-26T09:14:44Z</time>
      </trkpt>
      <trkpt lat="48.59377" lon="1.97718">
        <ele>156.9</ele>
        <time>2023-10-26T09:14:53Z</time>
      </trkpt>
      <trkpt lat="48.59387" lon="1.97722">
        <ele>157</ele>
        <time>2023-10-26T09:15:02Z</time>
      </trkpt>
      <trkpt lat="48.59396" lon="1.97725">
        <ele>156.9</ele>
        <time>2023-10-26T09:15:09Z</time>
      </trkpt>
      <trkpt lat="48.59405" lon="1.97727">
        <ele>156.6</ele>
        <time>2023-10-26T09:15:16Z</time>
      </trkpt>
      <trkpt lat="48.59415" lon="1.97733">
        <ele>156.5</ele>
        <time>2023-10-26T09:15:24Z</time>
      </trkpt>
      <trkpt lat="48.59423" lon="1.97739">
        <ele>156.3</ele>
        <time>2023-10-26T09:15:30Z</time>
      </trkpt>
      <trkpt lat="48.59432" lon="1.97745">
        <ele>156.1</ele>
        <time>2023-10-26T09:15:40Z</time>
      </trkpt>
      <trkpt lat="48.59441" lon="1.97741">
        <ele>155.5</ele>
        <time>2023-10-26T09:15:48Z</time>
      </trkpt>
      <trkpt lat="48.5944" lon="1.97725">
        <ele>154.5</ele>
        <time>2023-10-26T09:15:56Z</time>
      </trkpt>
      <trkpt lat="48.59437" lon="1.97711">
        <ele>153.8</ele>
        <time>2023-10-26T09:16:03Z</time>
      </trkpt>
      <trkpt lat="48.59435" lon="1.97697">
        <ele>152.9</ele>
        <time>2023-10-26T09:16:13Z</time>
      </trkpt>
      <trkpt lat="48.59431" lon="1.97684">
        <ele>152</ele>
        <time>2023-10-26T09:16:19Z</time>
      </trkpt>
      <trkpt lat="48.59428" lon="1.97669">
        <ele>151</ele>
        <time>2023-10-26T09:16:27Z</time>
      </trkpt>
      <trkpt lat="48.59431" lon="1.97656">
        <ele>149.7</ele>
        <time>2023-10-26T09:16:41Z</time>
      </trkpt>
      <trkpt lat="48.59432" lon="1.97642">
        <ele>148.6</ele>
        <time>2023-10-26T09:16:50Z</time>
      </trkpt>
      <trkpt lat="48.59432" lon="1.97626">
        <ele>147.7</ele>
        <time>2023-10-26T09:16:57Z</time>
      </trkpt>
      <trkpt lat="48.59434" lon="1.97613">
        <ele>146.8</ele>
        <time>2023-10-26T09:17:03Z</time>
      </trkpt>
      <trkpt lat="48.59438" lon="1.976">
        <ele>146</ele>
        <time>2023-10-26T09:17:10Z</time>
      </trkpt>
      <trkpt lat="48.59442" lon="1.97587">
        <ele>145.3</ele>
        <time>2023-10-26T09:17:18Z</time>
      </trkpt>
      <trkpt lat="48.59444" lon="1.97573">
        <ele>144.6</ele>
        <time>2023-10-26T09:17:25Z</time>
      </trkpt>
      <trkpt lat="48.59448" lon="1.9756">
        <ele>143.9</ele>
        <time>2023-10-26T09:17:32Z</time>
      </trkpt>
      <trkpt lat="48.59454" lon="1.9755">
        <ele>143</ele>
        <time>2023-10-26T09:17:40Z</time>
      </trkpt>
      <trkpt lat="48.59462" lon="1.97543">
        <ele>142.1</ele>
        <time>2023-10-26T09:17:48Z</time>
      </trkpt>
      <trkpt lat="48.59468" lon="1.97533">
        <ele>141.4</ele>
        <time>2023-10-26T09:17:55Z</time>
      </trkpt>
      <trkpt lat="48.59472" lon="1.9752">
        <ele>141</ele>
        <time>2023-10-26T09:18:04Z</time>
      </trkpt>
      <trkpt lat="48.59474" lon="1.97506">
        <ele>140.8</ele>
        <time>2023-10-26T09:18:12Z</time>
      </trkpt>
      <trkpt lat="48.59471" lon="1.97492">
        <ele>140.7</ele>
        <time>2023-10-26T09:18:18Z</time>
      </trkpt>
      <trkpt lat="48.59467" lon="1.97478">
        <ele>140.1</ele>
        <time>2023-10-26T09:18:25Z</time>
      </trkpt>
      <trkpt lat="48.59465" lon="1.97465">
        <ele>139.2</ele>
        <time>2023-10-26T09:18:31Z</time>
      </trkpt>
      <trkpt lat="48.59465" lon="1.9745">
        <ele>138.2</ele>
        <time>2023-10-26T09:18:38Z</time>
      </trkpt>
      <trkpt lat="48.59468" lon="1.97438">
        <ele>137.8</ele>
        <time>2023-10-26T09:18:45Z</time>
      </trkpt>
      <trkpt lat="48.59473" lon="1.97425">
        <ele>138</ele>
        <time>2023-10-26T09:18:55Z</time>
      </trkpt>
      <trkpt lat="48.59474" lon="1.97412">
        <ele>138</ele>
        <time>2023-10-26T09:19:02Z</time>
      </trkpt>
      <trkpt lat="48.59472" lon="1.97398">
        <ele>138</ele>
        <time>2023-10-26T09:19:11Z</time>
      </trkpt>
      <trkpt lat="48.59468" lon="1.97384">
        <ele>138.1</ele>
        <time>2023-10-26T09:19:19Z</time>
      </trkpt>
      <trkpt lat="48.59466" lon="1.97369">
        <ele>138.8</ele>
        <time>2023-10-26T09:19:27Z</time>
      </trkpt>
      <trkpt lat="48.59462" lon="1.97356">
        <ele>139.6</ele>
        <time>2023-10-26T09:19:35Z</time>
      </trkpt>
      <trkpt lat="48.59459" lon="1.97343">
        <ele>140.8</ele>
        <time>2023-10-26T09:19:45Z</time>
      </trkpt>
      <trkpt lat="48.59459" lon="1.97329">
        <ele>142.6</ele>
        <time>2023-10-26T09:19:55Z</time>
      </trkpt>
      <trkpt lat="48.59457" lon="1.97315">
        <ele>144.5</ele>
        <time>2023-10-26T09:20:05Z</time>
      </trkpt>
      <trkpt lat="48.59456" lon="1.973">
        <ele>146.6</ele>
        <time>2023-10-26T09:20:15Z</time>
      </trkpt>
      <trkpt lat="48.59451" lon="1.97287">
        <ele>148.4</ele>
        <time>2023-10-26T09:20:27Z</time>
      </trkpt>
      <trkpt lat="48.59443" lon="1.97278">
        <ele>149.9</ele>
        <time>2023-10-26T09:20:38Z</time>
      </trkpt>
      <trkpt lat="48.59438" lon="1.97266">
        <ele>151.2</ele>
        <time>2023-10-26T09:20:45Z</time>
      </trkpt>
      <trkpt lat="48.59431" lon="1.97256">
        <ele>152.2</ele>
        <time>2023-10-26T09:20:52Z</time>
      </trkpt>
      <trkpt lat="48.59424" lon="1.97246">
        <ele>152.9</ele>
        <time>2023-10-26T09:21:02Z</time>
      </trkpt>
      <trkpt lat="48.59423" lon="1.97232">
        <ele>154.2</ele>
        <time>2023-10-26T09:21:12Z</time>
      </trkpt>
      <trkpt lat="48.59426" lon="1.97218">
        <ele>155.5</ele>
        <time>2023-10-26T09:21:20Z</time>
      </trkpt>
      <trkpt lat="48.59433" lon="1.97208">
        <ele>156.4</ele>
        <time>2023-10-26T09:21:29Z</time>
      </trkpt>
      <trkpt lat="48.59441" lon="1.97199">
        <ele>157.4</ele>
        <time>2023-10-26T09:21:37Z</time>
      </trkpt>
      <trkpt lat="48.59443" lon="1.97185">
        <ele>157.9</ele>
        <time>2023-10-26T09:21:44Z</time>
      </trkpt>
      <trkpt lat="48.59441" lon="1.9717">
        <ele>157.8</ele>
        <time>2023-10-26T09:21:50Z</time>
      </trkpt>
      <trkpt lat="48.59437" lon="1.97157">
        <ele>158.1</ele>
        <time>2023-10-26T09:21:56Z</time>
      </trkpt>
      <trkpt lat="48.59434" lon="1.97143">
        <ele>158.5</ele>
        <time>2023-10-26T09:22:03Z</time>
      </trkpt>
      <trkpt lat="48.59434" lon="1.97128">
        <ele>158.4</ele>
        <time>2023-10-26T09:22:10Z</time>
      </trkpt>
      <trkpt lat="48.59435" lon="1.97114">
        <ele>158.1</ele>
        <time>2023-10-26T09:22:17Z</time>
      </trkpt>
      <trkpt lat="48.59434" lon="1.97099">
        <ele>158</ele>
        <time>2023-10-26T09:22:25Z</time>
      </trkpt>
      <trkpt lat="48.59432" lon="1.97084">
        <ele>158</ele>
        <time>2023-10-26T09:22:33Z</time>
      </trkpt>
      <trkpt lat="48.59427" lon="1.97071">
        <ele>157.8</ele>
        <time>2023-10-26T09:22:41Z</time>
      </trkpt>
      <trkpt lat="48.59425" lon="1.97057">
        <ele>157.7</ele>
        <time>2023-10-26T09:22:48Z</time>
      </trkpt>
      <trkpt lat="48.59422" lon="1.97043">
        <ele>157.4</ele>
        <time>2023-10-26T09:22:55Z</time>
      </trkpt>
      <trkpt lat="48.5942" lon="1.9703">
        <ele>157</ele>
        <time>2023-10-26T09:23:02Z</time>
      </trkpt>
      <trkpt lat="48.5942" lon="1.97014">
        <ele>156.8</ele>
        <time>2023-10-26T09:23:10Z</time>
      </trkpt>
      <trkpt lat="48.59423" lon="1.97001">
        <ele>156.6</ele>
        <time>2023-10-26T09:23:17Z</time>
      </trkpt>
      <trkpt lat="48.59425" lon="1.96986">
        <ele>156.4</ele>
        <time>2023-10-26T09:23:24Z</time>
      </trkpt>
      <trkpt lat="48.59426" lon="1.96971">
        <ele>156.4</ele>
        <time>2023-10-26T09:23:31Z</time>
      </trkpt>
      <trkpt lat="48.59418" lon="1.96961">
        <ele>156.9</ele>
        <time>2023-10-26T09:23:39Z</time>
      </trkpt>
      <trkpt lat="48.59413" lon="1.96949">
        <ele>156.8</ele>
        <time>2023-10-26T09:23:46Z</time>
      </trkpt>
      <trkpt lat="48.59411" lon="1.96935">
        <ele>156.3</ele>
        <time>2023-10-26T09:23:53Z</time>
      </trkpt>
      <trkpt lat="48.59407" lon="1.96922">
        <ele>155.8</ele>
        <time>2023-10-26T09:23:59Z</time>
      </trkpt>
      <trkpt lat="48.59406" lon="1.96908">
        <ele>155.6</ele>
        <time>2023-10-26T09:24:06Z</time>
      </trkpt>
      <trkpt lat="48.59405" lon="1.96894">
        <ele>155.6</ele>
        <time>2023-10-26T09:24:13Z</time>
      </trkpt>
      <trkpt lat="48.59407" lon="1.96881">
        <ele>155.5</ele>
        <time>2023-10-26T09:25:47Z</time>
      </trkpt>
      <trkpt lat="48.59413" lon="1.96869">
        <ele>155.8</ele>
        <time>2023-10-26T09:25:55Z</time>
      </trkpt>
      <trkpt lat="48.5942" lon="1.96859">
        <ele>155.5</ele>
        <time>2023-10-26T09:26:02Z</time>
      </trkpt>
      <trkpt lat="48.59429" lon="1.96853">
        <ele>154.4</ele>
        <time>2023-10-26T09:26:08Z</time>
      </trkpt>
      <trkpt lat="48.59438" lon="1.96849">
        <ele>153.5</ele>
        <time>2023-10-26T09:26:16Z</time>
      </trkpt>
      <trkpt lat="48.59443" lon="1.96836">
        <ele>153.1</ele>
        <time>2023-10-26T09:26:24Z</time>
      </trkpt>
      <trkpt lat="48.59443" lon="1.96822">
        <ele>152.2</ele>
        <time>2023-10-26T09:26:31Z</time>
      </trkpt>
      <trkpt lat="48.59439" lon="1.96809">
        <ele>151.5</ele>
        <time>2023-10-26T09:26:39Z</time>
      </trkpt>
      <trkpt lat="48.59434" lon="1.96797">
        <ele>150.6</ele>
        <time>2023-10-26T09:26:46Z</time>
      </trkpt>
      <trkpt lat="48.59431" lon="1.96784">
        <ele>149.6</ele>
        <time>2023-10-26T09:26:53Z</time>
      </trkpt>
      <trkpt lat="48.59425" lon="1.96771">
        <ele>148.6</ele>
        <time>2023-10-26T09:27:00Z</time>
      </trkpt>
      <trkpt lat="48.59419" lon="1.9676">
        <ele>147.8</ele>
        <time>2023-10-26T09:27:06Z</time>
      </trkpt>
      <trkpt lat="48.59415" lon="1.96747">
        <ele>146.7</ele>
        <time>2023-10-26T09:27:12Z</time>
      </trkpt>
      <trkpt lat="48.59415" lon="1.96732">
        <ele>145.7</ele>
        <time>2023-10-26T09:27:19Z</time>
      </trkpt>
      <trkpt lat="48.59416" lon="1.96717">
        <ele>144.8</ele>
        <time>2023-10-26T09:27:26Z</time>
      </trkpt>
      <trkpt lat="48.59412" lon="1.96704">
        <ele>144.1</ele>
        <time>2023-10-26T09:27:33Z</time>
      </trkpt>
      <trkpt lat="48.59404" lon="1.96695">
        <ele>143.2</ele>
        <time>2023-10-26T09:27:40Z</time>
      </trkpt>
      <trkpt lat="48.59395" lon="1.96701">
        <ele>142.9</ele>
        <time>2023-10-26T09:27:50Z</time>
      </trkpt>
      <trkpt lat="48.59391" lon="1.96715">
        <ele>143.6</ele>
        <time>2023-10-26T09:27:57Z</time>
      </trkpt>
      <trkpt lat="48.59386" lon="1.96727">
        <ele>143.8</ele>
        <time>2023-10-26T09:28:05Z</time>
      </trkpt>
      <trkpt lat="48.59379" lon="1.96737">
        <ele>143.3</ele>
        <time>2023-10-26T09:28:12Z</time>
      </trkpt>
      <trkpt lat="48.59374" lon="1.96749">
        <ele>143.2</ele>
        <time>2023-10-26T09:28:20Z</time>
      </trkpt>
      <trkpt lat="48.59369" lon="1.96762">
        <ele>143.2</ele>
        <time>2023-10-26T09:28:28Z</time>
      </trkpt>
      <trkpt lat="48.59363" lon="1.96775">
        <ele>143.2</ele>
        <time>2023-10-26T09:28:35Z</time>
      </trkpt>
      <trkpt lat="48.59357" lon="1.96787">
        <ele>143.1</ele>
        <time>2023-10-26T09:28:44Z</time>
      </trkpt>
      <trkpt lat="48.59352" lon="1.96798">
        <ele>142.7</ele>
        <time>2023-10-26T09:28:51Z</time>
      </trkpt>
      <trkpt lat="48.59345" lon="1.9681">
        <ele>141.6</ele>
        <time>2023-10-26T09:28:59Z</time>
      </trkpt>
      <trkpt lat="48.5934" lon="1.96822">
        <ele>140.5</ele>
        <time>2023-10-26T09:29:07Z</time>
      </trkpt>
      <trkpt lat="48.59334" lon="1.96835">
        <ele>139.1</ele>
        <time>2023-10-26T09:29:14Z</time>
      </trkpt>
      <trkpt lat="48.59329" lon="1.96847">
        <ele>138.5</ele>
        <time>2023-10-26T09:29:21Z</time>
      </trkpt>
      <trkpt lat="48.59324" lon="1.96861">
        <ele>137.6</ele>
        <time>2023-10-26T09:29:39Z</time>
      </trkpt>
      <trkpt lat="48.59317" lon="1.96872">
        <ele>136</ele>
        <time>2023-10-26T09:29:45Z</time>
      </trkpt>
      <trkpt lat="48.59312" lon="1.96885">
        <ele>134.5</ele>
        <time>2023-10-26T09:29:51Z</time>
      </trkpt>
      <trkpt lat="48.59306" lon="1.96896">
        <ele>133.2</ele>
        <time>2023-10-26T09:29:57Z</time>
      </trkpt>
      <trkpt lat="48.593" lon="1.96909">
        <ele>132</ele>
        <time>2023-10-26T09:30:03Z</time>
      </trkpt>
      <trkpt lat="48.59294" lon="1.96922">
        <ele>130.8</ele>
        <time>2023-10-26T09:30:09Z</time>
      </trkpt>
      <trkpt lat="48.59289" lon="1.96934">
        <ele>129.3</ele>
        <time>2023-10-26T09:30:16Z</time>
      </trkpt>
      <trkpt lat="48.59284" lon="1.96947">
        <ele>128</ele>
        <time>2023-10-26T09:30:23Z</time>
      </trkpt>
      <trkpt lat="48.59278" lon="1.96959">
        <ele>126.5</ele>
        <time>2023-10-26T09:30:30Z</time>
      </trkpt>
      <trkpt lat="48.59273" lon="1.96971">
        <ele>125.4</ele>
        <time>2023-10-26T09:30:36Z</time>
      </trkpt>
      <trkpt lat="48.59267" lon="1.96984">
        <ele>124.8</ele>
        <time>2023-10-26T09:30:44Z</time>
      </trkpt>
      <trkpt lat="48.59263" lon="1.96996">
        <ele>124.2</ele>
        <time>2023-10-26T09:30:51Z</time>
      </trkpt>
      <trkpt lat="48.59258" lon="1.97008">
        <ele>123.6</ele>
        <time>2023-10-26T09:30:58Z</time>
      </trkpt>
      <trkpt lat="48.59251" lon="1.9702">
        <ele>122.9</ele>
        <time>2023-10-26T09:31:05Z</time>
      </trkpt>
      <trkpt lat="48.59246" lon="1.97033">
        <ele>122.7</ele>
        <time>2023-10-26T09:31:12Z</time>
      </trkpt>
      <trkpt lat="48.59241" lon="1.97044">
        <ele>122.6</ele>
        <time>2023-10-26T09:31:19Z</time>
      </trkpt>
      <trkpt lat="48.59235" lon="1.97056">
        <ele>122.4</ele>
        <time>2023-10-26T09:31:26Z</time>
      </trkpt>
      <trkpt lat="48.5923" lon="1.97066">
        <ele>121.8</ele>
        <time>2023-10-26T09:31:32Z</time>
      </trkpt>
      <trkpt lat="48.59223" lon="1.97075">
        <ele>121.1</ele>
        <time>2023-10-26T09:31:38Z</time>
      </trkpt>
      <trkpt lat="48.59218" lon="1.97087">
        <ele>120.7</ele>
        <time>2023-10-26T09:31:44Z</time>
      </trkpt>
      <trkpt lat="48.59211" lon="1.97099">
        <ele>120.2</ele>
        <time>2023-10-26T09:31:50Z</time>
      </trkpt>
      <trkpt lat="48.59207" lon="1.97112">
        <ele>119.9</ele>
        <time>2023-10-26T09:31:56Z</time>
      </trkpt>
      <trkpt lat="48.59201" lon="1.97123">
        <ele>119.5</ele>
        <time>2023-10-26T09:32:03Z</time>
      </trkpt>
      <trkpt lat="48.59194" lon="1.97133">
        <ele>119</ele>
        <time>2023-10-26T09:32:10Z</time>
      </trkpt>
      <trkpt lat="48.59189" lon="1.97146">
        <ele>118.6</ele>
        <time>2023-10-26T09:32:16Z</time>
      </trkpt>
      <trkpt lat="48.59185" lon="1.9716">
        <ele>118.3</ele>
        <time>2023-10-26T09:32:24Z</time>
      </trkpt>
      <trkpt lat="48.5918" lon="1.97171">
        <ele>117.9</ele>
        <time>2023-10-26T09:32:37Z</time>
      </trkpt>
      <trkpt lat="48.59174" lon="1.97183">
        <ele>117.6</ele>
        <time>2023-10-26T09:32:46Z</time>
      </trkpt>
      <trkpt lat="48.59168" lon="1.97195">
        <ele>117.1</ele>
        <time>2023-10-26T09:32:56Z</time>
      </trkpt>
      <trkpt lat="48.59161" lon="1.97204">
        <ele>116.6</ele>
        <time>2023-10-26T09:33:05Z</time>
      </trkpt>
      <trkpt lat="48.59155" lon="1.97216">
        <ele>116.2</ele>
        <time>2023-10-26T09:33:14Z</time>
      </trkpt>
      <trkpt lat="48.5915" lon="1.97227">
        <ele>115.8</ele>
        <time>2023-10-26T09:33:21Z</time>
      </trkpt>
      <trkpt lat="48.59146" lon="1.9724">
        <ele>115.5</ele>
        <time>2023-10-26T09:33:27Z</time>
      </trkpt>
      <trkpt lat="48.5914" lon="1.97255">
        <ele>115.1</ele>
        <time>2023-10-26T09:33:34Z</time>
      </trkpt>
      <trkpt lat="48.59135" lon="1.97268">
        <ele>114.9</ele>
        <time>2023-10-26T09:33:40Z</time>
      </trkpt>
      <trkpt lat="48.5913" lon="1.97281">
        <ele>114.7</ele>
        <time>2023-10-26T09:33:47Z</time>
      </trkpt>
      <trkpt lat="48.59125" lon="1.97292">
        <ele>114.5</ele>
        <time>2023-10-26T09:33:53Z</time>
      </trkpt>
      <trkpt lat="48.59119" lon="1.97304">
        <ele>114.3</ele>
        <time>2023-10-26T09:34:01Z</time>
      </trkpt>
      <trkpt lat="48.59112" lon="1.97314">
        <ele>114</ele>
        <time>2023-10-26T09:34:08Z</time>
      </trkpt>
      <trkpt lat="48.59103" lon="1.97313">
        <ele>114</ele>
        <time>2023-10-26T09:34:21Z</time>
      </trkpt>
      <trkpt lat="48.59094" lon="1.97306">
        <ele>114</ele>
        <time>2023-10-26T09:34:28Z</time>
      </trkpt>
      <trkpt lat="48.59086" lon="1.97301">
        <ele>113.8</ele>
        <time>2023-10-26T09:34:36Z</time>
      </trkpt>
      <trkpt lat="48.59076" lon="1.97295">
        <ele>113.5</ele>
        <time>2023-10-26T09:34:44Z</time>
      </trkpt>
      <trkpt lat="48.59067" lon="1.97293">
        <ele>113.2</ele>
        <time>2023-10-26T09:34:51Z</time>
      </trkpt>
      <trkpt lat="48.59058" lon="1.97287">
        <ele>113</ele>
        <time>2023-10-26T09:34:57Z</time>
      </trkpt>
      <trkpt lat="48.59048" lon="1.97283">
        <ele>112.7</ele>
        <time>2023-10-26T09:35:05Z</time>
      </trkpt>
      <trkpt lat="48.59039" lon="1.97275">
        <ele>112.4</ele>
        <time>2023-10-26T09:35:11Z</time>
      </trkpt>
      <trkpt lat="48.59031" lon="1.97268">
        <ele>112.1</ele>
        <time>2023-10-26T09:35:18Z</time>
      </trkpt>
      <trkpt lat="48.59025" lon="1.97256">
        <ele>112</ele>
        <time>2023-10-26T09:35:26Z</time>
      </trkpt>
      <trkpt lat="48.59025" lon="1.9724">
        <ele>112</ele>
        <time>2023-10-26T09:35:33Z</time>
      </trkpt>
      <trkpt lat="48.59029" lon="1.97225">
        <ele>112</ele>
        <time>2023-10-26T09:35:39Z</time>
      </trkpt>
      <trkpt lat="48.5903" lon="1.97211">
        <ele>112.5</ele>
        <time>2023-10-26T09:35:45Z</time>
      </trkpt>
      <trkpt lat="48.59032" lon="1.97197">
        <ele>112.9</ele>
        <time>2023-10-26T09:35:52Z</time>
      </trkpt>
      <trkpt lat="48.59033" lon="1.97183">
        <ele>113</ele>
        <time>2023-10-26T09:35:59Z</time>
      </trkpt>
      <trkpt lat="48.59036" lon="1.97169">
        <ele>113</ele>
        <time>2023-10-26T09:36:07Z</time>
      </trkpt>
      <trkpt lat="48.59038" lon="1.97155">
        <ele>113</ele>
        <time>2023-10-26T09:36:14Z</time>
      </trkpt>
      <trkpt lat="48.59038" lon="1.97141">
        <ele>113</ele>
        <time>2023-10-26T09:36:20Z</time>
      </trkpt>
      <trkpt lat="48.59043" lon="1.97127">
        <ele>113</ele>
        <time>2023-10-26T09:36:28Z</time>
      </trkpt>
      <trkpt lat="48.59043" lon="1.97113">
        <ele>113</ele>
        <time>2023-10-26T09:36:34Z</time>
      </trkpt>
      <trkpt lat="48.59048" lon="1.97101">
        <ele>113</ele>
        <time>2023-10-26T09:36:40Z</time>
      </trkpt>
      <trkpt lat="48.59053" lon="1.97089">
        <ele>113</ele>
        <time>2023-10-26T09:36:46Z</time>
      </trkpt>
      <trkpt lat="48.59056" lon="1.97073">
        <ele>113</ele>
        <time>2023-10-26T09:36:53Z</time>
      </trkpt>
      <trkpt lat="48.59059" lon="1.97061">
        <ele>113.1</ele>
        <time>2023-10-26T09:37:01Z</time>
      </trkpt>
      <trkpt lat="48.59063" lon="1.97048">
        <ele>113.3</ele>
        <time>2023-10-26T09:37:08Z</time>
      </trkpt>
      <trkpt lat="48.59066" lon="1.97035">
        <ele>113.4</ele>
        <time>2023-10-26T09:37:15Z</time>
      </trkpt>
      <trkpt lat="48.59069" lon="1.97021">
        <ele>113.4</ele>
        <time>2023-10-26T09:37:22Z</time>
      </trkpt>
      <trkpt lat="48.59074" lon="1.9701">
        <ele>113.2</ele>
        <time>2023-10-26T09:37:30Z</time>
      </trkpt>
      <trkpt lat="48.59075" lon="1.96994">
        <ele>113</ele>
        <time>2023-10-26T09:37:37Z</time>
      </trkpt>
      <trkpt lat="48.59078" lon="1.96981">
        <ele>113</ele>
        <time>2023-10-26T09:37:43Z</time>
      </trkpt>
      <trkpt lat="48.5908" lon="1.96966">
        <ele>113</ele>
        <time>2023-10-26T09:37:50Z</time>
      </trkpt>
      <trkpt lat="48.59086" lon="1.96954">
        <ele>113.1</ele>
        <time>2023-10-26T09:37:58Z</time>
      </trkpt>
      <trkpt lat="48.59088" lon="1.9694">
        <ele>113.2</ele>
        <time>2023-10-26T09:38:04Z</time>
      </trkpt>
      <trkpt lat="48.5909" lon="1.96926">
        <ele>113.2</ele>
        <time>2023-10-26T09:38:10Z</time>
      </trkpt>
      <trkpt lat="48.59096" lon="1.96915">
        <ele>113.4</ele>
        <time>2023-10-26T09:38:17Z</time>
      </trkpt>
      <trkpt lat="48.59097" lon="1.96901">
        <ele>113.2</ele>
        <time>2023-10-26T09:38:23Z</time>
      </trkpt>
      <trkpt lat="48.59101" lon="1.96886">
        <ele>113</ele>
        <time>2023-10-26T09:38:30Z</time>
      </trkpt>
      <trkpt lat="48.59104" lon="1.96872">
        <ele>113</ele>
        <time>2023-10-26T09:38:37Z</time>
      </trkpt>
      <trkpt lat="48.59108" lon="1.96858">
        <ele>113</ele>
        <time>2023-10-26T09:38:44Z</time>
      </trkpt>
      <trkpt lat="48.59115" lon="1.96847">
        <ele>113.3</ele>
        <time>2023-10-26T09:38:52Z</time>
      </trkpt>
      <trkpt lat="48.59119" lon="1.96834">
        <ele>113.5</ele>
        <time>2023-10-26T09:38:58Z</time>
      </trkpt>
      <trkpt lat="48.59122" lon="1.9682">
        <ele>113.8</ele>
        <time>2023-10-26T09:39:04Z</time>
      </trkpt>
      <trkpt lat="48.59124" lon="1.96805">
        <ele>113.9</ele>
        <time>2023-10-26T09:39:12Z</time>
      </trkpt>
      <trkpt lat="48.5913" lon="1.96794">
        <ele>114.4</ele>
        <time>2023-10-26T09:39:20Z</time>
      </trkpt>
      <trkpt lat="48.59134" lon="1.9678">
        <ele>114.7</ele>
        <time>2023-10-26T09:39:27Z</time>
      </trkpt>
      <trkpt lat="48.59139" lon="1.96768">
        <ele>114.7</ele>
        <time>2023-10-26T09:39:33Z</time>
      </trkpt>
      <trkpt lat="48.59143" lon="1.96755">
        <ele>114.6</ele>
        <time>2023-10-26T09:39:40Z</time>
      </trkpt>
      <trkpt lat="48.59145" lon="1.96741">
        <ele>114.6</ele>
        <time>2023-10-26T09:39:46Z</time>
      </trkpt>
      <trkpt lat="48.59151" lon="1.96729">
        <ele>115</ele>
        <time>2023-10-26T09:39:53Z</time>
      </trkpt>
      <trkpt lat="48.59154" lon="1.96716">
        <ele>115.1</ele>
        <time>2023-10-26T09:39:59Z</time>
      </trkpt>
      <trkpt lat="48.59154" lon="1.96702">
        <ele>115.1</ele>
        <time>2023-10-26T09:40:05Z</time>
      </trkpt>
      <trkpt lat="48.59152" lon="1.96687">
        <ele>114.9</ele>
        <time>2023-10-26T09:40:12Z</time>
      </trkpt>
      <trkpt lat="48.59154" lon="1.96672">
        <ele>115.1</ele>
        <time>2023-10-26T09:40:19Z</time>
      </trkpt>
      <trkpt lat="48.59155" lon="1.96656">
        <ele>115.1</ele>
        <time>2023-10-26T09:40:28Z</time>
      </trkpt>
      <trkpt lat="48.59156" lon="1.96641">
        <ele>115.2</ele>
        <time>2023-10-26T09:40:35Z</time>
      </trkpt>
      <trkpt lat="48.59161" lon="1.96629">
        <ele>115.7</ele>
        <time>2023-10-26T09:40:43Z</time>
      </trkpt>
      <trkpt lat="48.59166" lon="1.96618">
        <ele>116</ele>
        <time>2023-10-26T09:40:56Z</time>
      </trkpt>
      <trkpt lat="48.59172" lon="1.96606">
        <ele>116.2</ele>
        <time>2023-10-26T09:41:05Z</time>
      </trkpt>
      <trkpt lat="48.59176" lon="1.96594">
        <ele>116.3</ele>
        <time>2023-10-26T09:41:30Z</time>
      </trkpt>
      <trkpt lat="48.59183" lon="1.96604">
        <ele>116.6</ele>
        <time>2023-10-26T09:41:44Z</time>
      </trkpt>
    </trkseg>
  </trk>
</gpx>